Home > Products > Valid Products > TAF

000
FTUS41 KCTP 292320
TAFAOO
TAF
KAOO 292320Z 3000/3024 00000KT P6SM SKC
     FM300600 VRB03KT 5SM BR SCT200
      TEMPO 3009/3011 2SM BR
     FM301200 25005KT 6SM HZ SCT050 BKN090
     FM301900 25005KT 6SM HZ VCTS BKN050CB=



000
FTUS41 KCTP 292320
TAFAOO
TAF
KAOO 292320Z 3000/3024 00000KT P6SM SKC
     FM300600 VRB03KT 5SM BR SCT200
      TEMPO 3009/3011 2SM BR
     FM301200 25005KT 6SM HZ SCT050 BKN090
     FM301900 25005KT 6SM HZ VCTS BKN050CB=



000
FTUS41 KCTP 292320
TAFJST
TAF
KJST 292320Z 3000/3024 00000KT P6SM SKC
     FM300700 VRB03KT 4SM BR VCSH BKN090
     FM301200 25006KT P6SM SCT040 BKN090
     FM301600 25007KT 6SM HZ VCTS BKN050CB=



000
FTUS41 KCTP 292320
TAFJST
TAF
KJST 292320Z 3000/3024 00000KT P6SM SKC
     FM300700 VRB03KT 4SM BR VCSH BKN090
     FM301200 25006KT P6SM SCT040 BKN090
     FM301600 25007KT 6SM HZ VCTS BKN050CB=



000
FTUS41 KCTP 292320
TAFUNV
TAF
KUNV 292320Z 3000/3024 31007KT P6SM FEW060
     FM300600 00000KT 3SM BR SCT200
     FM301200 24005KT P6SM SCT050 BKN090
     FM301900 25005KT 6SM HZ VCTS BKN050CB=



000
FTUS41 KCTP 292320
TAFMDT
TAF
KMDT 292320Z 3000/3024 00000KT P6SM FEW060 BKN250
     FM300800 00000KT 5SM HZ BR SKC
     FM301400 25005KT P6SM SCT250=



000
FTUS41 KCTP 292320
TAFBFD
TAF
KBFD 292320Z 3000/3024 18003KT P6SM FEW080
     FM300300 VRB03KT 5SM BR VCSH SCT050
      TEMPO 3005/3009 2SM BR
     FM301200 24005KT P6SM BKN250
     FM301500 VRB03KT 6SM HZ VCTS BKN050CB
     FM302000 VRB03KT 6SM HZ BKN050 PROB30 3020/3023 5SM -TSRA
      BKN040CB=



000
FTUS41 KCTP 292320
TAFMDT
TAF
KMDT 292320Z 3000/3024 00000KT P6SM FEW060 BKN250
     FM300800 00000KT 5SM HZ BR SKC
     FM301400 25005KT P6SM SCT250=



000
FTUS41 KCTP 292320
TAFBFD
TAF
KBFD 292320Z 3000/3024 18003KT P6SM FEW080
     FM300300 VRB03KT 5SM BR VCSH SCT050
      TEMPO 3005/3009 2SM BR
     FM301200 24005KT P6SM BKN250
     FM301500 VRB03KT 6SM HZ VCTS BKN050CB
     FM302000 VRB03KT 6SM HZ BKN050 PROB30 3020/3023 5SM -TSRA
      BKN040CB=



000
FTUS41 KCTP 292320
TAFIPT
TAF
KIPT 292320Z 3000/3024 00000KT P6SM SKC
     FM300600 00000KT 5SM BR SCT200
     FM301200 VRB03KT P6SM BKN100
     FM301900 25005KT 6SM HZ VCTS BKN050CB=



000
FTUS41 KCTP 292115 AAA
TAFBFD
TAF AMD
KBFD 292115Z 2921/3018 20006KT P6SM SKC
     FM300300 VRB03KT 5SM BR VCSH SCT050 BKN090
      TEMPO 3005/3009 1SM BR
     FM301100 VRB03KT 6SM HZ BKN050 PROB30 3016/3018 5SM -TSRA
      BKN040CB=



000
FTUS41 KCTP 292115 AAA
TAFUNV
TAF AMD
KUNV 292115Z 2921/3018 31007KT P6SM FEW060
     FM300600 00000KT 3SM BR SCT200
      TEMPO 3009/3011 1SM BR
     FM301200 VRB03KT 6SM HZ SCT050 BKN090=



000
FTUS41 KCTP 292115 AAA
TAFBFD
TAF AMD
KBFD 292115Z 2921/3018 20006KT P6SM SKC
     FM300300 VRB03KT 5SM BR VCSH SCT050 BKN090
      TEMPO 3005/3009 1SM BR
     FM301100 VRB03KT 6SM HZ BKN050 PROB30 3016/3018 5SM -TSRA
      BKN040CB=



000
FTUS41 KCTP 292115 AAA
TAFJST
TAF AMD
KJST 292115Z 2921/3018 32006KT P6SM SKC
     FM300600 VRB03KT 6SM BR VCSH BKN090
     FM301100 25006KT P6SM SCT040 BKN090
     FM301600 25007KT 6SM HZ VCSH BKN050=



000
FTUS41 KCTP 292115 AAA
TAFIPT
TAF AMD
KIPT 292115Z 2921/3018 VRB04KT P6SM SKC
     FM300600 00000KT 5SM BR SCT200
      TEMPO 3008/3011 2SM BR
     FM301100 VRB03KT 6SM HZ SCT040 BKN090=



000
FTUS41 KCTP 292115 AAA
TAFAOO
TAF AMD
KAOO 292115Z 2921/3018 32005KT P6SM SKC
     FM300600 VRB03KT 4SM BR SCT200
      TEMPO 3009/3011 2SM BR
     FM301200 25005KT 6SM HZ SCT050 BKN090=



000
FTUS41 KCTP 292115 AAA
TAFMDT
TAF AMD
KMDT 292115Z 2921/3018 19003KT P6SM FEW060 BKN250
     FM301000 00000KT 5SM HZ BR SKC
     FM301300 25005KT P6SM SCT250=



000
FTUS41 KCTP 292115 AAA
TAFAOO
TAF AMD
KAOO 292115Z 2921/3018 32005KT P6SM SKC
     FM300600 VRB03KT 4SM BR SCT200
      TEMPO 3009/3011 2SM BR
     FM301200 25005KT 6SM HZ SCT050 BKN090=



000
FTUS41 KCTP 292115 AAA
TAFMDT
TAF AMD
KMDT 292115Z 2921/3018 19003KT P6SM FEW060 BKN250
     FM301000 00000KT 5SM HZ BR SKC
     FM301300 25005KT P6SM SCT250=



000
FTUS41 KCTP 292115 AAA
TAFJST
TAF AMD
KJST 292115Z 2921/3018 32006KT P6SM SKC
     FM300600 VRB03KT 6SM BR VCSH BKN090
     FM301100 25006KT P6SM SCT040 BKN090
     FM301600 25007KT 6SM HZ VCSH BKN050=



000
FTUS41 KCTP 292115 AAA
TAFUNV
TAF AMD
KUNV 292115Z 2921/3018 31007KT P6SM FEW060
     FM300600 00000KT 3SM BR SCT200
      TEMPO 3009/3011 1SM BR
     FM301200 VRB03KT 6SM HZ SCT050 BKN090=



000
FTUS41 KCTP 292115 AAA
TAFIPT
TAF AMD
KIPT 292115Z 2921/3018 VRB04KT P6SM SKC
     FM300600 00000KT 5SM BR SCT200
      TEMPO 3008/3011 2SM BR
     FM301100 VRB03KT 6SM HZ SCT040 BKN090=



000
FTUS41 KCTP 292115 AAA
TAFBFD
TAF AMD
KBFD 292115Z 2921/3018 20006KT P6SM SKC
     FM300300 VRB03KT 5SM BR VCSH SCT050 BKN090
      TEMPO 3005/3009 1SM BR
     FM301100 VRB03KT 6SM HZ BKN050 PROB30 3016/3018 5SM -TSRA
      BKN040CB=



000
FTUS41 KCTP 292115 AAA
TAFAOO
TAF AMD
KAOO 292115Z 2921/3018 32005KT P6SM SKC
     FM300600 VRB03KT 4SM BR SCT200
      TEMPO 3009/3011 2SM BR
     FM301200 25005KT 6SM HZ SCT050 BKN090=



000
FTUS41 KCTP 292115 AAA
TAFBFD
TAF AMD
KBFD 292115Z 2921/3018 20006KT P6SM SKC
     FM300300 VRB03KT 5SM BR VCSH SCT050 BKN090
      TEMPO 3005/3009 1SM BR
     FM301100 VRB03KT 6SM HZ BKN050 PROB30 3016/3018 5SM -TSRA
      BKN040CB=



000
FTUS41 KCTP 292115 AAA
TAFMDT
TAF AMD
KMDT 292115Z 2921/3018 19003KT P6SM FEW060 BKN250
     FM301000 00000KT 5SM HZ BR SKC
     FM301300 25005KT P6SM SCT250=



000
FTUS41 KCTP 292115 AAA
TAFJST
TAF AMD
KJST 292115Z 2921/3018 32006KT P6SM SKC
     FM300600 VRB03KT 6SM BR VCSH BKN090
     FM301100 25006KT P6SM SCT040 BKN090
     FM301600 25007KT 6SM HZ VCSH BKN050=



000
FTUS41 KCTP 292115 AAA
TAFIPT
TAF AMD
KIPT 292115Z 2921/3018 VRB04KT P6SM SKC
     FM300600 00000KT 5SM BR SCT200
      TEMPO 3008/3011 2SM BR
     FM301100 VRB03KT 6SM HZ SCT040 BKN090=



000
FTUS41 KCTP 292115 AAA
TAFUNV
TAF AMD
KUNV 292115Z 2921/3018 31007KT P6SM FEW060
     FM300600 00000KT 3SM BR SCT200
      TEMPO 3009/3011 1SM BR
     FM301200 VRB03KT 6SM HZ SCT050 BKN090=



000
FTUS41 KCTP 292115 AAA
TAFUNV
TAF AMD
KUNV 292115Z 2921/3018 31007KT P6SM FEW060
     FM300600 00000KT 3SM BR SCT200
      TEMPO 3009/3011 1SM BR
     FM301200 VRB03KT 6SM HZ SCT050 BKN090=



000
FTUS41 KCTP 292115 AAA
TAFMDT
TAF AMD
KMDT 292115Z 2921/3018 19003KT P6SM FEW060 BKN250
     FM301000 00000KT 5SM HZ BR SKC
     FM301300 25005KT P6SM SCT250=



000
FTUS41 KCTP 292115 AAA
TAFIPT
TAF AMD
KIPT 292115Z 2921/3018 VRB04KT P6SM SKC
     FM300600 00000KT 5SM BR SCT200
      TEMPO 3008/3011 2SM BR
     FM301100 VRB03KT 6SM HZ SCT040 BKN090=



000
FTUS41 KCTP 292115 AAA
TAFJST
TAF AMD
KJST 292115Z 2921/3018 32006KT P6SM SKC
     FM300600 VRB03KT 6SM BR VCSH BKN090
     FM301100 25006KT P6SM SCT040 BKN090
     FM301600 25007KT 6SM HZ VCSH BKN050=



000
FTUS41 KCTP 292115 AAA
TAFAOO
TAF AMD
KAOO 292115Z 2921/3018 32005KT P6SM SKC
     FM300600 VRB03KT 4SM BR SCT200
      TEMPO 3009/3011 2SM BR
     FM301200 25005KT 6SM HZ SCT050 BKN090=



000
FTUS41 KCTP 291720
TAFAOO
TAF
KAOO 291720Z 2918/3018 25004KT P6SM BKN050
     FM300600 VRB03KT 4SM BR SCT200
      TEMPO 3009/3011 2SM BR
     FM301200 25005KT 6SM HZ SCT050 BKN090=



000
FTUS41 KCTP 291720
TAFMDT
TAF
KMDT 291720Z 2918/3018 23003KT P6SM SCT070=



000
FTUS41 KCTP 291720
TAFUNV
TAF
KUNV 291720Z 2918/3018 26006KT P6SM BKN050
     FM300600 00000KT 3SM BR SCT200
      TEMPO 3009/3011 1SM BR
     FM301200 VRB03KT 6SM HZ SCT050 BKN090=



000
FTUS41 KCTP 291720
TAFIPT
TAF
KIPT 291720Z 2918/3018 VRB03KT P6SM SCT050
     FM300600 00000KT 5SM BR SCT200
      TEMPO 3008/3011 2SM BR
     FM301100 VRB03KT 6SM HZ SCT040 BKN090=



000
FTUS41 KCTP 291720
TAFBFD
TAF
KBFD 291720Z 2918/3018 VRB03KT P6SM BKN050
     FM300300 VRB03KT 3SM BR VCSH SCT050 BKN090
      TEMPO 3005/3009 1SM BR
     FM301100 VRB03KT 6SM HZ BKN050 PROB30 3016/3018 5SM -TSRA
      BKN040CB=



000
FTUS41 KCTP 291720
TAFBFD
TAF
KBFD 291720Z 2918/3018 VRB03KT P6SM BKN050
     FM300300 VRB03KT 3SM BR VCSH SCT050 BKN090
      TEMPO 3005/3009 1SM BR
     FM301100 VRB03KT 6SM HZ BKN050 PROB30 3016/3018 5SM -TSRA
      BKN040CB=



000
FTUS41 KCTP 291720
TAFAOO
TAF
KAOO 291720Z 2918/3018 25004KT P6SM BKN050
     FM300600 VRB03KT 4SM BR SCT200
      TEMPO 3009/3011 2SM BR
     FM301200 25005KT 6SM HZ SCT050 BKN090=



000
FTUS41 KCTP 291720
TAFJST
TAF
KJST 291720Z 2918/3018 27007KT P6SM BKN050
     FM300600 VRB03KT 6SM BR VCSH BKN090
     FM301100 25006KT P6SM SCT040 BKN090
     FM301600 25007KT 6SM HZ VCSH BKN050=



000
FTUS41 KCTP 291720
TAFJST
TAF
KJST 291720Z 2918/3018 27007KT P6SM BKN050
     FM300600 VRB03KT 6SM BR VCSH BKN090
     FM301100 25006KT P6SM SCT040 BKN090
     FM301600 25007KT 6SM HZ VCSH BKN050=



000
FTUS41 KCTP 291720
TAFUNV
TAF
KUNV 291720Z 2918/3018 26006KT P6SM BKN050
     FM300600 00000KT 3SM BR SCT200
      TEMPO 3009/3011 1SM BR
     FM301200 VRB03KT 6SM HZ SCT050 BKN090=



000
FTUS41 KCTP 291720
TAFMDT
TAF
KMDT 291720Z 2918/3018 23003KT P6SM SCT070=



000
FTUS41 KCTP 291720
TAFIPT
TAF
KIPT 291720Z 2918/3018 VRB03KT P6SM SCT050
     FM300600 00000KT 5SM BR SCT200
      TEMPO 3008/3011 2SM BR
     FM301100 VRB03KT 6SM HZ SCT040 BKN090=



000
FTUS41 KCTP 291500 AAA
TAFMDT
TAF AMD
KMDT 291500Z 2915/3012 23003KT P6SM FEW050=



000
FTUS41 KCTP 291500 AAD
TAFAOO
TAF AMD
KAOO 291500Z 2915/3012 VRB03KT P6SM SCT050=



000
FTUS41 KCTP 291500 AAA
TAFJST
TAF AMD
KJST 291500Z 2915/3012 VRB03KT P6SM SCT050=



000
FTUS41 KCTP 291500 AAC
TAFUNV
TAF AMD
KUNV 291500Z 2915/3012 23003KT P6SM BKN050=



000
FTUS41 KCTP 291500 AAD
TAFAOO
TAF AMD
KAOO 291500Z 2915/3012 VRB03KT P6SM SCT050=



000
FTUS41 KCTP 291500 AAA
TAFMDT
TAF AMD
KMDT 291500Z 2915/3012 23003KT P6SM FEW050=



000
FTUS41 KCTP 291500 AAA
TAFMDT
TAF AMD
KMDT 291500Z 2915/3012 23003KT P6SM FEW050=



000
FTUS41 KCTP 291500 AAB
TAFIPT
TAF AMD
KIPT 291500Z 2915/3012 VRB04KT P6SM SCT050=



000
FTUS41 KCTP 291500 AAB
TAFIPT
TAF AMD
KIPT 291500Z 2915/3012 VRB04KT P6SM SCT050=



000
FTUS41 KCTP 291500 AAA
TAFBFD
TAF AMD
KBFD 291500Z 2915/3012 VRB03KT P6SM SCT050=



000
FTUS41 KCTP 291500 AAC
TAFUNV
TAF AMD
KUNV 291500Z 2915/3012 23003KT P6SM BKN050=



000
FTUS41 KCTP 291500 AAC
TAFUNV
TAF AMD
KUNV 291500Z 2915/3012 23003KT P6SM BKN050=



000
FTUS41 KCTP 291500 AAA
TAFJST
TAF AMD
KJST 291500Z 2915/3012 VRB03KT P6SM SCT050=



000
FTUS41 KCTP 291500 AAA
TAFBFD
TAF AMD
KBFD 291500Z 2915/3012 VRB03KT P6SM SCT050=



000
FTUS41 KCTP 291500 AAB
TAFIPT
TAF AMD
KIPT 291500Z 2915/3012 VRB04KT P6SM SCT050=



000
FTUS41 KCTP 291500 AAC
TAFUNV
TAF AMD
KUNV 291500Z 2915/3012 23003KT P6SM BKN050=



000
FTUS41 KCTP 291500 AAA
TAFBFD
TAF AMD
KBFD 291500Z 2915/3012 VRB03KT P6SM SCT050=



000
FTUS41 KCTP 291500 AAB
TAFIPT
TAF AMD
KIPT 291500Z 2915/3012 VRB04KT P6SM SCT050=



000
FTUS41 KCTP 291500 AAA
TAFMDT
TAF AMD
KMDT 291500Z 2915/3012 23003KT P6SM FEW050=



000
FTUS41 KCTP 291400 AAB
TAFUNV
TAF AMD
KUNV 291400Z 2914/3012 VRB03KT 4SM BR SCT250
     FM291500 23003KT P6SM BKN050=



000
FTUS41 KCTP 291400 AAB
TAFUNV
TAF AMD
KUNV 291400Z 2914/3012 VRB03KT 4SM BR SCT250
     FM291500 23003KT P6SM BKN050=



000
FTUS41 KCTP 291400 AAC
TAFAOO
TAF AMD
KAOO 291400Z 2914/3012 VRB03KT P6SM SCT050=



000
FTUS41 KCTP 291400 AAC
TAFAOO
TAF AMD
KAOO 291400Z 2914/3012 VRB03KT P6SM SCT050=



000
FTUS41 KCTP 291347 AAB
TAFAOO
TAF AMD
KAOO 291347Z 2914/3012 00000KT 5SM BR SCT050
     FM291430 VRB03KT P6SM SCT250=



000
FTUS41 KCTP 291347 AAB
TAFAOO
TAF AMD
KAOO 291347Z 2914/3012 00000KT 5SM BR SCT050
     FM291430 VRB03KT P6SM SCT250=



000
FTUS41 KCTP 291332 AAA
TAFUNV
TAF AMD
KUNV 291332Z 2914/3012 00000KT 1/2SM FG SCT250
     FM291430 VRB03KT 4SM BR SCT250
     FM291500 23003KT P6SM BKN050=



000
FTUS41 KCTP 291332 AAA
TAFUNV
TAF AMD
KUNV 291332Z 2914/3012 00000KT 1/2SM FG SCT250
     FM291430 VRB03KT 4SM BR SCT250
     FM291500 23003KT P6SM BKN050=



000
FTUS41 KCTP 291332 AAA
TAFUNV
TAF AMD
KUNV 291332Z 2914/3012 00000KT 1/2SM FG SCT250
     FM291430 VRB03KT 4SM BR SCT250
     FM291500 23003KT P6SM BKN050=



000
FTUS41 KCTP 291307 AAA
TAFAOO
TAF AMD
KAOO 291307Z 2913/3012 00000KT 5SM BR SCT050
     FM291330 VRB03KT P6SM SCT250=



000
FTUS41 KCTP 291307 AAA
TAFAOO
TAF AMD
KAOO 291307Z 2913/3012 00000KT 5SM BR SCT050
     FM291330 VRB03KT P6SM SCT250=



000
FTUS41 KCTP 291307 AAA
TAFAOO
TAF AMD
KAOO 291307Z 2913/3012 00000KT 5SM BR SCT050
     FM291330 VRB03KT P6SM SCT250=



000
FTUS41 KCTP 291307 AAA
TAFAOO
TAF AMD
KAOO 291307Z 2913/3012 00000KT 5SM BR SCT050
     FM291330 VRB03KT P6SM SCT250=



000
FTUS41 KCTP 291246 AAA
TAFIPT
TAF AMD
KIPT 291246Z 2913/3012 00000KT 6SM BR FEW002
      TEMPO 2913/2914 5SM BR
     FM291400 VRB04KT P6SM SCT050=



000
FTUS41 KCTP 291246 AAA
TAFIPT
TAF AMD
KIPT 291246Z 2913/3012 00000KT 6SM BR FEW002
      TEMPO 2913/2914 5SM BR
     FM291400 VRB04KT P6SM SCT050=



000
FTUS41 KCTP 291148
TAFAOO
TAF
KAOO 291148Z 2912/3012 00000KT 2SM BR SCT050
     FM291300 VRB03KT P6SM SCT250=



000
FTUS41 KCTP 291148
TAFAOO
TAF
KAOO 291148Z 2912/3012 00000KT 2SM BR SCT050
     FM291300 VRB03KT P6SM SCT250=



000
FTUS41 KCTP 291148
TAFUNV
TAF
KUNV 291148Z 2912/3012 00000KT 2SM BR SCT100
      TEMPO 2912/2914 1/4SM FG
     FM291400 VRB03KT 4SM BR SCT250
     FM291500 23003KT P6SM BKN250=



000
FTUS41 KCTP 291148
TAFUNV
TAF
KUNV 291148Z 2912/3012 00000KT 2SM BR SCT100
      TEMPO 2912/2914 1/4SM FG
     FM291400 VRB03KT 4SM BR SCT250
     FM291500 23003KT P6SM BKN250=



000
FTUS41 KCTP 291148
TAFBFD
TAF
KBFD 291148Z 2912/3012 00000KT P6SM SKC
     FM291500 VRB03KT P6SM SCT250=



000
FTUS41 KCTP 291148
TAFJST
TAF
KJST 291148Z 2912/3012 19005KT P6SM SKC
     FM291300 VRB03KT P6SM SCT250=



000
FTUS41 KCTP 291148
TAFMDT
TAF
KMDT 291148Z 2912/3012 00000KT P6SM SCT250
     FM291500 23003KT P6SM SKC=



000
FTUS41 KCTP 291148
TAFBFD
TAF
KBFD 291148Z 2912/3012 00000KT P6SM SKC
     FM291500 VRB03KT P6SM SCT250=



000
FTUS41 KCTP 291148
TAFJST
TAF
KJST 291148Z 2912/3012 19005KT P6SM SKC
     FM291300 VRB03KT P6SM SCT250=



000
FTUS41 KCTP 291148
TAFMDT
TAF
KMDT 291148Z 2912/3012 00000KT P6SM SCT250
     FM291500 23003KT P6SM SKC=



000
FTUS41 KCTP 291148
TAFIPT
TAF
KIPT 291148Z 2912/3012 00000KT 2SM BR FEW002
      TEMPO 2912/2914 1SM BR BKN002
     FM291400 VRB04KT P6SM SCT250=



000
FTUS41 KCTP 291148
TAFUNV
TAF
KUNV 291148Z 2912/3012 00000KT 2SM BR SCT100
      TEMPO 2912/2914 1/4SM FG
     FM291400 VRB03KT 4SM BR SCT250
     FM291500 23003KT P6SM BKN250=



000
FTUS41 KCTP 291148
TAFIPT
TAF
KIPT 291148Z 2912/3012 00000KT 2SM BR FEW002
      TEMPO 2912/2914 1SM BR BKN002
     FM291400 VRB04KT P6SM SCT250=



000
FTUS41 KCTP 291148
TAFJST
TAF
KJST 291148Z 2912/3012 19005KT P6SM SKC
     FM291300 VRB03KT P6SM SCT250=



000
FTUS41 KCTP 291148
TAFAOO
TAF
KAOO 291148Z 2912/3012 00000KT 2SM BR SCT050
     FM291300 VRB03KT P6SM SCT250=



000
FTUS41 KCTP 291148
TAFBFD
TAF
KBFD 291148Z 2912/3012 00000KT P6SM SKC
     FM291500 VRB03KT P6SM SCT250=



000
FTUS41 KCTP 291148
TAFJST
TAF
KJST 291148Z 2912/3012 19005KT P6SM SKC
     FM291300 VRB03KT P6SM SCT250=



000
FTUS41 KCTP 291148
TAFIPT
TAF
KIPT 291148Z 2912/3012 00000KT 2SM BR FEW002
      TEMPO 2912/2914 1SM BR BKN002
     FM291400 VRB04KT P6SM SCT250=



000
FTUS41 KCTP 291148
TAFMDT
TAF
KMDT 291148Z 2912/3012 00000KT P6SM SCT250
     FM291500 23003KT P6SM SKC=



000
FTUS41 KCTP 291148
TAFAOO
TAF
KAOO 291148Z 2912/3012 00000KT 2SM BR SCT050
     FM291300 VRB03KT P6SM SCT250=



000
FTUS41 KCTP 291148
TAFUNV
TAF
KUNV 291148Z 2912/3012 00000KT 2SM BR SCT100
      TEMPO 2912/2914 1/4SM FG
     FM291400 VRB03KT 4SM BR SCT250
     FM291500 23003KT P6SM BKN250=



000
FTUS41 KCTP 291148
TAFBFD
TAF
KBFD 291148Z 2912/3012 00000KT P6SM SKC
     FM291500 VRB03KT P6SM SCT250=



000
FTUS41 KCTP 291148
TAFIPT
TAF
KIPT 291148Z 2912/3012 00000KT 2SM BR FEW002
      TEMPO 2912/2914 1SM BR BKN002
     FM291400 VRB04KT P6SM SCT250=



000
FTUS41 KCTP 291148
TAFMDT
TAF
KMDT 291148Z 2912/3012 00000KT P6SM SCT250
     FM291500 23003KT P6SM SKC=



000
FTUS41 KCTP 291056 AAB
TAFAOO
TAF AMD
KAOO 291056Z 2911/3006 00000KT 5SM BR SKC
      TEMPO 2911/2912 2SM BR
     FM291300 VRB03KT P6SM SCT250=



000
FTUS41 KCTP 291056 AAB
TAFAOO
TAF AMD
KAOO 291056Z 2911/3006 00000KT 5SM BR SKC
      TEMPO 2911/2912 2SM BR
     FM291300 VRB03KT P6SM SCT250=



000
FTUS41 KCTP 291056 AAE
TAFUNV
TAF AMD
KUNV 291056Z 2911/3006 00000KT 6SM BR SCT100
      TEMPO 2911/2912 1/2SM FG
     FM291200 00000KT 4SM BR SKC
     FM291300 VRB03KT P6SM SCT250=



000
FTUS41 KCTP 291056 AAE
TAFUNV
TAF AMD
KUNV 291056Z 2911/3006 00000KT 6SM BR SCT100
      TEMPO 2911/2912 1/2SM FG
     FM291200 00000KT 4SM BR SKC
     FM291300 VRB03KT P6SM SCT250=



000
FTUS41 KCTP 291056 AAE
TAFUNV
TAF AMD
KUNV 291056Z 2911/3006 00000KT 6SM BR SCT100
      TEMPO 2911/2912 1/2SM FG
     FM291200 00000KT 4SM BR SKC
     FM291300 VRB03KT P6SM SCT250=



000
FTUS41 KCTP 291056 AAE
TAFUNV
TAF AMD
KUNV 291056Z 2911/3006 00000KT 6SM BR SCT100
      TEMPO 2911/2912 1/2SM FG
     FM291200 00000KT 4SM BR SKC
     FM291300 VRB03KT P6SM SCT250=



000
FTUS41 KCTP 291015 AAD
TAFUNV
TAF AMD
KUNV 291015Z 2910/3006 00000KT 6SM BR SCT100
     FM291200 00000KT 4SM BR SKC
     FM291300 VRB03KT P6SM SCT250=



000
FTUS41 KCTP 291015 AAD
TAFUNV
TAF AMD
KUNV 291015Z 2910/3006 00000KT 6SM BR SCT100
     FM291200 00000KT 4SM BR SKC
     FM291300 VRB03KT P6SM SCT250=



000
FTUS41 KCTP 291014 AAB
TAFIPT
TAF AMD
KIPT 291014Z 2910/3006 00000KT P6SM FEW006
      TEMPO 2911/2912 BKN006
     FM291300 VRB04KT P6SM SCT250=



000
FTUS41 KCTP 290955 AAD
TAFBFD
TAF AMD
KBFD 290955Z 2910/3006 00000KT 3SM BR SKC
     FM291400 26003KT 4SM BR SCT004
     FM291500 VRB03KT P6SM SCT250=



000
FTUS41 KCTP 290955 AAD
TAFBFD
TAF AMD
KBFD 290955Z 2910/3006 00000KT 3SM BR SKC
     FM291400 26003KT 4SM BR SCT004
     FM291500 VRB03KT P6SM SCT250=



000
FTUS41 KCTP 290908 AAA
TAFAOO
TAF AMD
KAOO 290908Z 2909/3006 00000KT 5SM BR SKC
     FM291300 VRB03KT P6SM SCT250=



000
FTUS41 KCTP 290908 AAC
TAFUNV
TAF AMD
KUNV 290908Z 2909/3006 00000KT 2SM BR SCT060 BKN100
      TEMPO 2909/2911 1/2SM FG BKN060
     FM291200 00000KT 4SM BR SKC
     FM291300 VRB03KT P6SM SCT250=



000
FTUS41 KCTP 290908 AAA
TAFJST
TAF AMD
KJST 290908Z 2909/3006 21005KT P6SM FEW040
     FM291300 VRB03KT P6SM SCT250=



000
FTUS41 KCTP 290908 AAA
TAFIPT
TAF AMD
KIPT 290908Z 2909/3006 36003KT P6SM BKN006
     FM291300 VRB04KT P6SM SCT250=



000
FTUS41 KCTP 290908 AAC
TAFBFD
TAF AMD
KBFD 290908Z 2909/3006 00000KT 3SM BR SKC
      TEMPO 2909/2911 1SM BR BKN004
     FM291400 26003KT 4SM BR SCT004
     FM291500 VRB03KT P6SM SCT250=



000
FTUS41 KCTP 290908 AAA
TAFMDT
TAF AMD
KMDT 290908Z 2909/3006 07004KT P6SM SCT250
     FM291500 23003KT P6SM SKC=



000
FTUS41 KCTP 290908 AAA
TAFMDT
TAF AMD
KMDT 290908Z 2909/3006 07004KT P6SM SCT250
     FM291500 23003KT P6SM SKC=



000
FTUS41 KCTP 290908 AAA
TAFIPT
TAF AMD
KIPT 290908Z 2909/3006 36003KT P6SM BKN006
     FM291300 VRB04KT P6SM SCT250=



000
FTUS41 KCTP 290908 AAA
TAFJST
TAF AMD
KJST 290908Z 2909/3006 21005KT P6SM FEW040
     FM291300 VRB03KT P6SM SCT250=



000
FTUS41 KCTP 290908 AAA
TAFAOO
TAF AMD
KAOO 290908Z 2909/3006 00000KT 5SM BR SKC
     FM291300 VRB03KT P6SM SCT250=



000
FTUS41 KCTP 290908 AAC
TAFUNV
TAF AMD
KUNV 290908Z 2909/3006 00000KT 2SM BR SCT060 BKN100
      TEMPO 2909/2911 1/2SM FG BKN060
     FM291200 00000KT 4SM BR SKC
     FM291300 VRB03KT P6SM SCT250=



000
FTUS41 KCTP 290908 AAC
TAFBFD
TAF AMD
KBFD 290908Z 2909/3006 00000KT 3SM BR SKC
      TEMPO 2909/2911 1SM BR BKN004
     FM291400 26003KT 4SM BR SCT004
     FM291500 VRB03KT P6SM SCT250=



000
FTUS41 KCTP 290830 AAB
TAFUNV
TAF AMD
KUNV 290830Z 2909/3006 00000KT 4SM BR SCT070 SCT090
      TEMPO 2910/2911 1SM BR BKN060
     FM291200 00000KT 4SM BR SKC
     FM291300 VRB03KT P6SM SCT250=



000
FTUS41 KCTP 290830 AAB
TAFUNV
TAF AMD
KUNV 290830Z 2909/3006 00000KT 4SM BR SCT070 SCT090
      TEMPO 2910/2911 1SM BR BKN060
     FM291200 00000KT 4SM BR SKC
     FM291300 VRB03KT P6SM SCT250=



000
FTUS41 KCTP 290805 AAB
TAFBFD
TAF AMD
KBFD 290805Z 2908/3006 00000KT 2SM BR SCT004
      TEMPO 2908/2911 1SM BR BKN004
     FM291400 26003KT 4SM BR SCT004
     FM291500 VRB03KT P6SM SCT250=



000
FTUS41 KCTP 290741 AAA
TAFUNV
TAF AMD
KUNV 290741Z 2908/3006 00000KT 4SM BR SCT070 SCT090
      TEMPO 2908/2910 1SM BR BKN060
     FM291200 00000KT 4SM BR SKC
     FM291300 VRB03KT P6SM SCT250=



000
FTUS41 KCTP 290741 AAA
TAFUNV
TAF AMD
KUNV 290741Z 2908/3006 00000KT 4SM BR SCT070 SCT090
      TEMPO 2908/2910 1SM BR BKN060
     FM291200 00000KT 4SM BR SKC
     FM291300 VRB03KT P6SM SCT250=



000
FTUS41 KCTP 290619 AAA
TAFBFD
TAF AMD
KBFD 290619Z 2906/3006 00000KT P6SM FEW001
     FM290800 00000KT 2SM BR SCT004
      TEMPO 2909/2911 1SM BR BKN004
     FM291400 26003KT 4SM BR SCT004
     FM291500 VRB03KT P6SM SCT250=



000
FTUS41 KCTP 290619 AAA
TAFBFD
TAF AMD
KBFD 290619Z 2906/3006 00000KT P6SM FEW001
     FM290800 00000KT 2SM BR SCT004
      TEMPO 2909/2911 1SM BR BKN004
     FM291400 26003KT 4SM BR SCT004
     FM291500 VRB03KT P6SM SCT250=



000
FTUS41 KCTP 290619 AAA
TAFBFD
TAF AMD
KBFD 290619Z 2906/3006 00000KT P6SM FEW001
     FM290800 00000KT 2SM BR SCT004
      TEMPO 2909/2911 1SM BR BKN004
     FM291400 26003KT 4SM BR SCT004
     FM291500 VRB03KT P6SM SCT250=



000
FTUS41 KCTP 290619 AAA
TAFBFD
TAF AMD
KBFD 290619Z 2906/3006 00000KT P6SM FEW001
     FM290800 00000KT 2SM BR SCT004
      TEMPO 2909/2911 1SM BR BKN004
     FM291400 26003KT 4SM BR SCT004
     FM291500 VRB03KT P6SM SCT250=



000
FTUS41 KCTP 290557 RRA
TAFBFD
TAF
KBFD 290557Z 2906/3006 00000KT 1SM BR VV001
     FM290800 00000KT 2SM BR SCT004
      TEMPO 2909/2911 1SM BR BKN004
     FM291400 26003KT 4SM BR SCT004
     FM291500 VRB03KT P6SM SCT250=



000
FTUS41 KCTP 290557 RRA
TAFBFD
TAF
KBFD 290557Z 2906/3006 00000KT 1SM BR VV001
     FM290800 00000KT 2SM BR SCT004
      TEMPO 2909/2911 1SM BR BKN004
     FM291400 26003KT 4SM BR SCT004
     FM291500 VRB03KT P6SM SCT250=



000
FTUS41 KCTP 290549
TAFIPT
TAF
KIPT 290549Z 2906/3006 00000KT P6SM SKC
     FM291300 VRB04KT P6SM SCT250=



000
FTUS41 KCTP 290549
TAFUNV
TAF
KUNV 290549Z 2906/3006 00000KT P6SM SCT070 SCT090
     FM290900 00000KT 4SM BR SKC
     FM291300 VRB03KT P6SM SCT250=



000
FTUS41 KCTP 290549
TAFBFD
TAF
KBFD 290549Z 2906/3006 00000KT 4SM BR SKC
     FM290800 00000KT 2SM BR SCT004
      TEMPO 2909/2911 1SM BR BKN004
     FM291400 26003KT 4SM BR SCT004
     FM291500 VRB03KT P6SM SCT250=



000
FTUS41 KCTP 290549
TAFMDT
TAF
KMDT 290549Z 2906/3006 06003KT P6SM FEW250
     FM291500 23003KT P6SM SKC=



000
FTUS41 KCTP 290549
TAFAOO
TAF
KAOO 290549Z 2906/3006 00000KT P6SM SKC
     FM290900 VRB03KT 4SM BR SKC
     FM291300 VRB03KT P6SM SCT250=



000
FTUS41 KCTP 290549
TAFJST
TAF
KJST 290549Z 2906/3006 20004KT P6SM SKC
     FM290800 VRB03KT 4SM BR SKC
     FM291300 VRB03KT P6SM SCT250=



000
FTUS41 KCTP 290549
TAFMDT
TAF
KMDT 290549Z 2906/3006 06003KT P6SM FEW250
     FM291500 23003KT P6SM SKC=



000
FTUS41 KCTP 290549
TAFBFD
TAF
KBFD 290549Z 2906/3006 00000KT 4SM BR SKC
     FM290800 00000KT 2SM BR SCT004
      TEMPO 2909/2911 1SM BR BKN004
     FM291400 26003KT 4SM BR SCT004
     FM291500 VRB03KT P6SM SCT250=



000
FTUS41 KCTP 290549
TAFUNV
TAF
KUNV 290549Z 2906/3006 00000KT P6SM SCT070 SCT090
     FM290900 00000KT 4SM BR SKC
     FM291300 VRB03KT P6SM SCT250=



000
FTUS41 KCTP 290549
TAFJST
TAF
KJST 290549Z 2906/3006 20004KT P6SM SKC
     FM290800 VRB03KT 4SM BR SKC
     FM291300 VRB03KT P6SM SCT250=



000
FTUS41 KCTP 290549
TAFIPT
TAF
KIPT 290549Z 2906/3006 00000KT P6SM SKC
     FM291300 VRB04KT P6SM SCT250=



000
FTUS41 KCTP 290549
TAFAOO
TAF
KAOO 290549Z 2906/3006 00000KT P6SM SKC
     FM290900 VRB03KT 4SM BR SKC
     FM291300 VRB03KT P6SM SCT250=



000
FTUS41 KCTP 290549
TAFBFD
TAF
KBFD 290549Z 2906/3006 00000KT 4SM BR SKC
     FM290800 00000KT 2SM BR SCT004
      TEMPO 2909/2911 1SM BR BKN004
     FM291400 26003KT 4SM BR SCT004
     FM291500 VRB03KT P6SM SCT250=



000
FTUS41 KCTP 290549
TAFIPT
TAF
KIPT 290549Z 2906/3006 00000KT P6SM SKC
     FM291300 VRB04KT P6SM SCT250=



000
FTUS41 KCTP 290549
TAFMDT
TAF
KMDT 290549Z 2906/3006 06003KT P6SM FEW250
     FM291500 23003KT P6SM SKC=



000
FTUS41 KCTP 290549
TAFJST
TAF
KJST 290549Z 2906/3006 20004KT P6SM SKC
     FM290800 VRB03KT 4SM BR SKC
     FM291300 VRB03KT P6SM SCT250=



000
FTUS41 KCTP 290549
TAFUNV
TAF
KUNV 290549Z 2906/3006 00000KT P6SM SCT070 SCT090
     FM290900 00000KT 4SM BR SKC
     FM291300 VRB03KT P6SM SCT250=



000
FTUS41 KCTP 290549
TAFAOO
TAF
KAOO 290549Z 2906/3006 00000KT P6SM SKC
     FM290900 VRB03KT 4SM BR SKC
     FM291300 VRB03KT P6SM SCT250=



000
FTUS41 KCTP 290549
TAFMDT
TAF
KMDT 290549Z 2906/3006 06003KT P6SM FEW250
     FM291500 23003KT P6SM SKC=



000
FTUS41 KCTP 290549
TAFUNV
TAF
KUNV 290549Z 2906/3006 00000KT P6SM SCT070 SCT090
     FM290900 00000KT 4SM BR SKC
     FM291300 VRB03KT P6SM SCT250=



000
FTUS41 KCTP 290549
TAFIPT
TAF
KIPT 290549Z 2906/3006 00000KT P6SM SKC
     FM291300 VRB04KT P6SM SCT250=



000
FTUS41 KCTP 290549
TAFJST
TAF
KJST 290549Z 2906/3006 20004KT P6SM SKC
     FM290800 VRB03KT 4SM BR SKC
     FM291300 VRB03KT P6SM SCT250=



000
FTUS41 KCTP 290549
TAFBFD
TAF
KBFD 290549Z 2906/3006 00000KT 4SM BR SKC
     FM290800 00000KT 2SM BR SCT004
      TEMPO 2909/2911 1SM BR BKN004
     FM291400 26003KT 4SM BR SCT004
     FM291500 VRB03KT P6SM SCT250=



000
FTUS41 KCTP 290549
TAFAOO
TAF
KAOO 290549Z 2906/3006 00000KT P6SM SKC
     FM290900 VRB03KT 4SM BR SKC
     FM291300 VRB03KT P6SM SCT250=



000
FTUS41 KCTP 290328 AAA
TAFJST
TAF AMD
KJST 290328Z 2903/2924 VRB03KT P6SM SKC
     FM290800 VRB03KT 4SM BR SKC
     FM291300 VRB03KT P6SM SCT250=



000
FTUS41 KCTP 290328 AAA
TAFIPT
TAF AMD
KIPT 290328Z 2903/2924 00000KT P6SM SKC
     FM291300 VRB04KT P6SM SCT250=



000
FTUS41 KCTP 290328 AAA
TAFMDT
TAF AMD
KMDT 290328Z 2903/2924 VRB03KT P6SM SKC
     FM291500 23003KT P6SM SKC=



000
FTUS41 KCTP 290328 AAA
TAFUNV
TAF AMD
KUNV 290328Z 2903/2924 00000KT P6SM SKC
     FM290900 00000KT 4SM BR SKC
     FM291300 VRB03KT P6SM SCT250=



000
FTUS41 KCTP 290328 AAA
TAFBFD
TAF AMD
KBFD 290328Z 2903/2924 00000KT P6SM FEW250
     FM290400 VRB03KT 4SM BR SCT250
     FM291300 VRB03KT P6SM SCT250=



000
FTUS41 KCTP 290328 AAA
TAFJST
TAF AMD
KJST 290328Z 2903/2924 VRB03KT P6SM SKC
     FM290800 VRB03KT 4SM BR SKC
     FM291300 VRB03KT P6SM SCT250=



000
FTUS41 KCTP 290328 AAA
TAFIPT
TAF AMD
KIPT 290328Z 2903/2924 00000KT P6SM SKC
     FM291300 VRB04KT P6SM SCT250=



000
FTUS41 KCTP 290328 AAA
TAFAOO
TAF AMD
KAOO 290328Z 2903/2924 VRB03KT P6SM SKC
     FM290900 VRB03KT 4SM BR SKC
     FM291300 VRB03KT P6SM SCT250=



000
FTUS41 KCTP 290328 AAA
TAFAOO
TAF AMD
KAOO 290328Z 2903/2924 VRB03KT P6SM SKC
     FM290900 VRB03KT 4SM BR SKC
     FM291300 VRB03KT P6SM SCT250=



000
FTUS41 KCTP 290328 AAA
TAFMDT
TAF AMD
KMDT 290328Z 2903/2924 VRB03KT P6SM SKC
     FM291500 23003KT P6SM SKC=



000
FTUS41 KCTP 290328 AAA
TAFUNV
TAF AMD
KUNV 290328Z 2903/2924 00000KT P6SM SKC
     FM290900 00000KT 4SM BR SKC
     FM291300 VRB03KT P6SM SCT250=



000
FTUS41 KCTP 290328 AAA
TAFBFD
TAF AMD
KBFD 290328Z 2903/2924 00000KT P6SM FEW250
     FM290400 VRB03KT 4SM BR SCT250
     FM291300 VRB03KT P6SM SCT250=



000
FTUS41 KCTP 290328 AAA
TAFJST
TAF AMD
KJST 290328Z 2903/2924 VRB03KT P6SM SKC
     FM290800 VRB03KT 4SM BR SKC
     FM291300 VRB03KT P6SM SCT250=



000
FTUS41 KCTP 290328 AAA
TAFIPT
TAF AMD
KIPT 290328Z 2903/2924 00000KT P6SM SKC
     FM291300 VRB04KT P6SM SCT250=



000
FTUS41 KCTP 282343
TAFIPT
TAF
KIPT 282343Z 2900/2924 VRB03KT P6SM SKC
     FM291300 VRB04KT P6SM SCT250=



000
FTUS41 KCTP 282343
TAFAOO
TAF
KAOO 282343Z 2900/2924 VRB03KT P6SM SKC
     FM290900 VRB03KT 4SM BR SKC
     FM291300 VRB03KT P6SM SCT250=



000
FTUS41 KCTP 282343
TAFAOO
TAF
KAOO 282343Z 2900/2924 VRB03KT P6SM SKC
     FM290900 VRB03KT 4SM BR SKC
     FM291300 VRB03KT P6SM SCT250=



000
FTUS41 KCTP 282343
TAFIPT
TAF
KIPT 282343Z 2900/2924 VRB03KT P6SM SKC
     FM291300 VRB04KT P6SM SCT250=



000
FTUS41 KCTP 282343
TAFBFD
TAF
KBFD 282343Z 2900/2924 VRB03KT P6SM FEW250
     FM290400 VRB03KT 4SM BR SCT250
     FM291300 VRB03KT P6SM SCT250=



000
FTUS41 KCTP 282343
TAFJST
TAF
KJST 282343Z 2900/2924 VRB03KT P6SM SKC
     FM290800 VRB03KT 4SM BR SKC
     FM291300 VRB03KT P6SM SCT250=



000
FTUS41 KCTP 282343
TAFUNV
TAF
KUNV 282343Z 2900/2924 00000KT P6SM SKC
     FM290900 00000KT 4SM BR SKC
     FM291300 VRB03KT P6SM SCT250=



000
FTUS41 KCTP 282343
TAFUNV
TAF
KUNV 282343Z 2900/2924 00000KT P6SM SKC
     FM290900 00000KT 4SM BR SKC
     FM291300 VRB03KT P6SM SCT250=



000
FTUS41 KCTP 282343
TAFBFD
TAF
KBFD 282343Z 2900/2924 VRB03KT P6SM FEW250
     FM290400 VRB03KT 4SM BR SCT250
     FM291300 VRB03KT P6SM SCT250=



000
FTUS41 KCTP 282343
TAFJST
TAF
KJST 282343Z 2900/2924 VRB03KT P6SM SKC
     FM290800 VRB03KT 4SM BR SKC
     FM291300 VRB03KT P6SM SCT250=



000
FTUS41 KCTP 282343
TAFMDT
TAF
KMDT 282343Z 2900/2924 VRB03KT P6SM SKC
     FM291500 23003KT P6SM SKC=



000
FTUS41 KCTP 282343
TAFMDT
TAF
KMDT 282343Z 2900/2924 VRB03KT P6SM SKC
     FM291500 23003KT P6SM SKC=



000
FTUS41 KCTP 282140 AAA
TAFUNV
TAF AMD
KUNV 282140Z 2822/2918 VRB03KT P6SM SKC
     FM290900 VRB03KT 4SM BR SKC
     FM291300 VRB03KT P6SM SKC=



000
FTUS41 KCTP 282140 AAA
TAFIPT
TAF AMD
KIPT 282140Z 2822/2918 VRB03KT P6SM SKC
     FM290000 VRB03KT P6SM SKC=



000
FTUS41 KCTP 282140 AAA
TAFBFD
TAF AMD
KBFD 282140Z 2822/2918 VRB03KT P6SM SCT045
     FM290400 VRB03KT 4SM BR SKC
     FM291300 VRB03KT P6SM SKC=



000
FTUS41 KCTP 282140 AAA
TAFUNV
TAF AMD
KUNV 282140Z 2822/2918 VRB03KT P6SM SKC
     FM290900 VRB03KT 4SM BR SKC
     FM291300 VRB03KT P6SM SKC=



000
FTUS41 KCTP 282140 AAA
TAFJST
TAF AMD
KJST 282140Z 2822/2918 VRB03KT P6SM SKC
     FM290800 VRB03KT 4SM BR SKC
     FM291300 VRB03KT P6SM SKC=



000
FTUS41 KCTP 282140 AAA
TAFAOO
TAF AMD
KAOO 282140Z 2822/2918 VRB03KT P6SM SKC
     FM290900 VRB03KT 4SM BR SKC
     FM291300 VRB03KT P6SM SKC=



000
FTUS41 KCTP 282140 AAA
TAFMDT
TAF AMD
KMDT 282140Z 2822/2918 VRB03KT P6SM SKC
     FM291500 23003KT P6SM SKC=



000
FTUS41 KCTP 281720
TAFJST
TAF
KJST 281720Z 2818/2918 VRB03KT P6SM BKN040
     FM290800 VRB03KT 4SM BR SKC
     FM291300 VRB03KT P6SM SKC=



000
FTUS41 KCTP 281720
TAFBFD
TAF
KBFD 281720Z 2818/2918 VRB03KT P6SM BKN040
     FM290400 VRB03KT 4SM BR SKC
     FM291300 VRB03KT P6SM SKC=



000
FTUS41 KCTP 281720
TAFJST
TAF
KJST 281720Z 2818/2918 VRB03KT P6SM BKN040
     FM290800 VRB03KT 4SM BR SKC
     FM291300 VRB03KT P6SM SKC=



000
FTUS41 KCTP 281720
TAFAOO
TAF
KAOO 281720Z 2818/2918 VRB03KT P6SM BKN040
     FM290900 VRB03KT 4SM BR SKC
     FM291300 VRB03KT P6SM SKC=



000
FTUS41 KCTP 281720
TAFUNV
TAF
KUNV 281720Z 2818/2918 VRB03KT P6SM BKN040
     FM290900 VRB03KT 4SM BR SKC
     FM291300 VRB03KT P6SM SKC=



000
FTUS41 KCTP 281720
TAFMDT
TAF
KMDT 281720Z 2818/2918 28004KT P6SM SCT050
     FM291500 23003KT P6SM SKC=



000
FTUS41 KCTP 281720
TAFIPT
TAF
KIPT 281720Z 2818/2918 VRB03KT P6SM BKN050
     FM290000 VRB03KT P6SM SKC=



000
FTUS41 KCTP 281720
TAFIPT
TAF
KIPT 281720Z 2818/2918 VRB03KT P6SM BKN050
     FM290000 VRB03KT P6SM SKC=



000
FTUS41 KCTP 281720
TAFBFD
TAF
KBFD 281720Z 2818/2918 VRB03KT P6SM BKN040
     FM290400 VRB03KT 4SM BR SKC
     FM291300 VRB03KT P6SM SKC=



000
FTUS41 KCTP 281720
TAFUNV
TAF
KUNV 281720Z 2818/2918 VRB03KT P6SM BKN040
     FM290900 VRB03KT 4SM BR SKC
     FM291300 VRB03KT P6SM SKC=



000
FTUS41 KCTP 281720
TAFMDT
TAF
KMDT 281720Z 2818/2918 28004KT P6SM SCT050
     FM291500 23003KT P6SM SKC=



000
FTUS41 KCTP 281720
TAFBFD
TAF
KBFD 281720Z 2818/2918 VRB03KT P6SM BKN040
     FM290400 VRB03KT 4SM BR SKC
     FM291300 VRB03KT P6SM SKC=



000
FTUS41 KCTP 281720
TAFAOO
TAF
KAOO 281720Z 2818/2918 VRB03KT P6SM BKN040
     FM290900 VRB03KT 4SM BR SKC
     FM291300 VRB03KT P6SM SKC=



000
FTUS41 KCTP 281720
TAFJST
TAF
KJST 281720Z 2818/2918 VRB03KT P6SM BKN040
     FM290800 VRB03KT 4SM BR SKC
     FM291300 VRB03KT P6SM SKC=



000
FTUS41 KCTP 281720
TAFBFD
TAF
KBFD 281720Z 2818/2918 VRB03KT P6SM BKN040
     FM290400 VRB03KT 4SM BR SKC
     FM291300 VRB03KT P6SM SKC=



000
FTUS41 KCTP 281720
TAFJST
TAF
KJST 281720Z 2818/2918 VRB03KT P6SM BKN040
     FM290800 VRB03KT 4SM BR SKC
     FM291300 VRB03KT P6SM SKC=



000
FTUS41 KCTP 281720
TAFAOO
TAF
KAOO 281720Z 2818/2918 VRB03KT P6SM BKN040
     FM290900 VRB03KT 4SM BR SKC
     FM291300 VRB03KT P6SM SKC=



000
FTUS41 KCTP 281720
TAFMDT
TAF
KMDT 281720Z 2818/2918 28004KT P6SM SCT050
     FM291500 23003KT P6SM SKC=



000
FTUS41 KCTP 281720
TAFUNV
TAF
KUNV 281720Z 2818/2918 VRB03KT P6SM BKN040
     FM290900 VRB03KT 4SM BR SKC
     FM291300 VRB03KT P6SM SKC=



000
FTUS41 KCTP 281720
TAFIPT
TAF
KIPT 281720Z 2818/2918 VRB03KT P6SM BKN050
     FM290000 VRB03KT P6SM SKC=



000
FTUS41 KCTP 281720
TAFIPT
TAF
KIPT 281720Z 2818/2918 VRB03KT P6SM BKN050
     FM290000 VRB03KT P6SM SKC=



000
FTUS41 KCTP 281720
TAFUNV
TAF
KUNV 281720Z 2818/2918 VRB03KT P6SM BKN040
     FM290900 VRB03KT 4SM BR SKC
     FM291300 VRB03KT P6SM SKC=



000
FTUS41 KCTP 281720
TAFMDT
TAF
KMDT 281720Z 2818/2918 28004KT P6SM SCT050
     FM291500 23003KT P6SM SKC=



000
FTUS41 KCTP 281720
TAFAOO
TAF
KAOO 281720Z 2818/2918 VRB03KT P6SM BKN040
     FM290900 VRB03KT 4SM BR SKC
     FM291300 VRB03KT P6SM SKC=



000
FTUS41 KCTP 281542 AAC
TAFAOO
TAF AMD
KAOO 281542Z 2816/2912 VRB03KT P6SM SCT050
     FM290900 00000KT 4SM BR SKC=



000
FTUS41 KCTP 281542 AAC
TAFBFD
TAF AMD
KBFD 281542Z 2816/2912 VRB03KT P6SM SCT050
     FM290400 00000KT 4SM BR SKC=



000
FTUS41 KCTP 281542 AAA
TAFUNV
TAF AMD
KUNV 281542Z 2816/2912 00000KT P6SM SCT050=



000
FTUS41 KCTP 281542 AAC
TAFAOO
TAF AMD
KAOO 281542Z 2816/2912 VRB03KT P6SM SCT050
     FM290900 00000KT 4SM BR SKC=



000
FTUS41 KCTP 281542 AAC
TAFJST
TAF AMD
KJST 281542Z 2816/2912 VRB03KT P6SM SKC
     FM290800 19004KT 4SM BR SKC=



000
FTUS41 KCTP 281542 AAA
TAFUNV
TAF AMD
KUNV 281542Z 2816/2912 00000KT P6SM SCT050=



000
FTUS41 KCTP 281542 AAA
TAFMDT
TAF AMD
KMDT 281542Z 2816/2912 28004KT P6SM SCT050=



000
FTUS41 KCTP 281542 AAC
TAFJST
TAF AMD
KJST 281542Z 2816/2912 VRB03KT P6SM SKC
     FM290800 19004KT 4SM BR SKC=



000
FTUS41 KCTP 281542 AAC
TAFBFD
TAF AMD
KBFD 281542Z 2816/2912 VRB03KT P6SM SCT050
     FM290400 00000KT 4SM BR SKC=



000
FTUS41 KCTP 281542 AAA
TAFMDT
TAF AMD
KMDT 281542Z 2816/2912 28004KT P6SM SCT050=



000
FTUS41 KCTP 281542 AAB
TAFIPT
TAF AMD
KIPT 281542Z 2816/2912 20004KT P6SM SCT050=



000
FTUS41 KCTP 281542 AAB
TAFIPT
TAF AMD
KIPT 281542Z 2816/2912 20004KT P6SM SCT050=



000
FTUS41 KCTP 281319 AAB
TAFJST
TAF AMD
KJST 281319Z 2813/2912 24004KT P6SM SKC=



000
FTUS41 KCTP 281319 AAB
TAFJST
TAF AMD
KJST 281319Z 2813/2912 24004KT P6SM SKC=



000
FTUS41 KCTP 281319 AAB
TAFJST
TAF AMD
KJST 281319Z 2813/2912 24004KT P6SM SKC=



000
FTUS41 KCTP 281319 AAB
TAFJST
TAF AMD
KJST 281319Z 2813/2912 24004KT P6SM SKC=



000
FTUS41 KCTP 281318 CCA
TAFBFD
TAF COR
KBFD 281318Z 2813/2912 VRB03KT P6SM SCT050
     FM281700 30006KT P6SM SCT050=



000
FTUS41 KCTP 281318 CCA
TAFBFD
TAF COR
KBFD 281318Z 2813/2912 VRB03KT P6SM SCT050
     FM281700 30006KT P6SM SCT050=



000
FTUS41 KCTP 281318 CCA
TAFBFD
TAF COR
KBFD 281318Z 2813/2912 VRB03KT P6SM SCT050
     FM281700 30006KT P6SM SCT050=



000
FTUS41 KCTP 281318 CCA
TAFBFD
TAF COR
KBFD 281318Z 2813/2912 VRB03KT P6SM SCT050
     FM281700 30006KT P6SM SCT050=



000
FTUS41 KCTP 281317 AAB
TAFAOO
TAF AMD
KAOO 281317Z 2813/2912 VRB03KT P6SM SKC=



000
FTUS41 KCTP 281317 AAB
TAFBFD
TAF AMD
KBFD 281317Z 2813/2912 VRB03KT 4SM BR SCT050
     FM281700 30006KT P6SM SCT050=



000
FTUS41 KCTP 281317 AAB
TAFBFD
TAF AMD
KBFD 281317Z 2813/2912 VRB03KT 4SM BR SCT050
     FM281700 30006KT P6SM SCT050=



000
FTUS41 KCTP 281317 AAB
TAFBFD
TAF AMD
KBFD 281317Z 2813/2912 VRB03KT 4SM BR SCT050
     FM281700 30006KT P6SM SCT050=



000
FTUS41 KCTP 281317 AAB
TAFBFD
TAF AMD
KBFD 281317Z 2813/2912 VRB03KT 4SM BR SCT050
     FM281700 30006KT P6SM SCT050=



000
FTUS41 KCTP 281317 AAB
TAFAOO
TAF AMD
KAOO 281317Z 2813/2912 VRB03KT P6SM SKC=



000
FTUS41 KCTP 281317 AAB
TAFAOO
TAF AMD
KAOO 281317Z 2813/2912 VRB03KT P6SM SKC=



000
FTUS41 KCTP 281316 AAA
TAFIPT
TAF AMD
KIPT 281316Z 2813/2912 VRB03KT P6SM SCT005
     FM281800 27004KT P6SM SCT250=



000
FTUS41 KCTP 281316 AAA
TAFIPT
TAF AMD
KIPT 281316Z 2813/2912 VRB03KT P6SM SCT005
     FM281800 27004KT P6SM SCT250=



000
FTUS41 KCTP 281316 AAA
TAFIPT
TAF AMD
KIPT 281316Z 2813/2912 VRB03KT P6SM SCT005
     FM281800 27004KT P6SM SCT250=



000
FTUS41 KCTP 281316 AAA
TAFIPT
TAF AMD
KIPT 281316Z 2813/2912 VRB03KT P6SM SCT005
     FM281800 27004KT P6SM SCT250=



000
FTUS41 KCTP 281241 AAA
TAFAOO
TAF AMD
KAOO 281241Z 2813/2912 00000KT 3SM BR SKC
     FM281500 21004KT P6SM SCT250=



000
FTUS41 KCTP 281241 AAA
TAFAOO
TAF AMD
KAOO 281241Z 2813/2912 00000KT 3SM BR SKC
     FM281500 21004KT P6SM SCT250=



000
FTUS41 KCTP 281240 AAA
TAFJST
TAF AMD
KJST 281240Z 2813/2912 24004KT 3SM BR SKC
     FM281500 21004KT P6SM SCT250=



000
FTUS41 KCTP 281240 AAA
TAFBFD
TAF AMD
KBFD 281240Z 2813/2912 00000KT 4SM BR VV001
     FM281400 VRB03KT 4SM BR SCT025 BKN050
     FM281500 30006KT P6SM SCT050=



000
FTUS41 KCTP 281240 AAA
TAFJST
TAF AMD
KJST 281240Z 2813/2912 24004KT 3SM BR SKC
     FM281500 21004KT P6SM SCT250=



000
FTUS41 KCTP 281240 AAA
TAFBFD
TAF AMD
KBFD 281240Z 2813/2912 00000KT 4SM BR VV001
     FM281400 VRB03KT 4SM BR SCT025 BKN050
     FM281500 30006KT P6SM SCT050=



000
FTUS41 KCTP 281240 AAA
TAFBFD
TAF AMD
KBFD 281240Z 2813/2912 00000KT 4SM BR VV001
     FM281400 VRB03KT 4SM BR SCT025 BKN050
     FM281500 30006KT P6SM SCT050=



000
FTUS41 KCTP 281240 AAA
TAFJST
TAF AMD
KJST 281240Z 2813/2912 24004KT 3SM BR SKC
     FM281500 21004KT P6SM SCT250=



000
FTUS41 KCTP 281240 AAA
TAFBFD
TAF AMD
KBFD 281240Z 2813/2912 00000KT 4SM BR VV001
     FM281400 VRB03KT 4SM BR SCT025 BKN050
     FM281500 30006KT P6SM SCT050=



000
FTUS41 KCTP 281240 AAA
TAFJST
TAF AMD
KJST 281240Z 2813/2912 24004KT 3SM BR SKC
     FM281500 21004KT P6SM SCT250=



000
FTUS41 KCTP 281137
TAFBFD
TAF
KBFD 281137Z 2812/2912 00000KT 1/4SM FG VV001
     FM281300 32005KT 2SM BR BKN001
     FM281400 VRB03KT 4SM BR SCT025 BKN050
     FM281500 30006KT P6SM SCT050=



000
FTUS41 KCTP 281137
TAFUNV
TAF
KUNV 281137Z 2812/2912 00000KT P6SM SCT080 SCT100
     FM281500 21004KT P6SM SCT250=



000
FTUS41 KCTP 281137
TAFAOO
TAF
KAOO 281137Z 2812/2912 00000KT 2SM BR FEW003
      TEMPO 2813/2814 4SM BR
     FM281400 VRB05KT 4SM BR SKC
     FM281500 21004KT P6SM SCT250=



000
FTUS41 KCTP 281137
TAFJST
TAF
KJST 281137Z 2812/2912 24004KT 1 1/2SM BR SKC
      TEMPO 2812/2814 1SM BR
     FM281400 VRB02KT 4SM BR SKC
     FM281500 21004KT P6SM SCT250=



000
FTUS41 KCTP 281137
TAFUNV
TAF
KUNV 281137Z 2812/2912 00000KT P6SM SCT080 SCT100
     FM281500 21004KT P6SM SCT250=



000
FTUS41 KCTP 281137
TAFMDT
TAF
KMDT 281137Z 2812/2912 05004KT P6SM SKC
     FM281500 24004KT P6SM SCT250=



000
FTUS41 KCTP 281137
TAFIPT
TAF
KIPT 281137Z 2812/2912 33003KT P6SM BKN005
     FM281400 31005KT P6SM SCT005
     FM281500 27004KT P6SM SCT250=



000
FTUS41 KCTP 281137
TAFJST
TAF
KJST 281137Z 2812/2912 24004KT 1 1/2SM BR SKC
      TEMPO 2812/2814 1SM BR
     FM281400 VRB02KT 4SM BR SKC
     FM281500 21004KT P6SM SCT250=



000
FTUS41 KCTP 281137
TAFBFD
TAF
KBFD 281137Z 2812/2912 00000KT 1/4SM FG VV001
     FM281300 32005KT 2SM BR BKN001
     FM281400 VRB03KT 4SM BR SCT025 BKN050
     FM281500 30006KT P6SM SCT050=



000
FTUS41 KCTP 281137
TAFIPT
TAF
KIPT 281137Z 2812/2912 33003KT P6SM BKN005
     FM281400 31005KT P6SM SCT005
     FM281500 27004KT P6SM SCT250=



000
FTUS41 KCTP 281137
TAFMDT
TAF
KMDT 281137Z 2812/2912 05004KT P6SM SKC
     FM281500 24004KT P6SM SCT250=



000
FTUS41 KCTP 281137
TAFAOO
TAF
KAOO 281137Z 2812/2912 00000KT 2SM BR FEW003
      TEMPO 2813/2814 4SM BR
     FM281400 VRB05KT 4SM BR SKC
     FM281500 21004KT P6SM SCT250=



000
FTUS41 KCTP 281137
TAFJST
TAF
KJST 281137Z 2812/2912 24004KT 1 1/2SM BR SKC
      TEMPO 2812/2814 1SM BR
     FM281400 VRB02KT 4SM BR SKC
     FM281500 21004KT P6SM SCT250=



000
FTUS41 KCTP 281137
TAFAOO
TAF
KAOO 281137Z 2812/2912 00000KT 2SM BR FEW003
      TEMPO 2813/2814 4SM BR
     FM281400 VRB05KT 4SM BR SKC
     FM281500 21004KT P6SM SCT250=



000
FTUS41 KCTP 281137
TAFIPT
TAF
KIPT 281137Z 2812/2912 33003KT P6SM BKN005
     FM281400 31005KT P6SM SCT005
     FM281500 27004KT P6SM SCT250=



000
FTUS41 KCTP 281137
TAFMDT
TAF
KMDT 281137Z 2812/2912 05004KT P6SM SKC
     FM281500 24004KT P6SM SCT250=



000
FTUS41 KCTP 281137
TAFUNV
TAF
KUNV 281137Z 2812/2912 00000KT P6SM SCT080 SCT100
     FM281500 21004KT P6SM SCT250=



000
FTUS41 KCTP 281137
TAFBFD
TAF
KBFD 281137Z 2812/2912 00000KT 1/4SM FG VV001
     FM281300 32005KT 2SM BR BKN001
     FM281400 VRB03KT 4SM BR SCT025 BKN050
     FM281500 30006KT P6SM SCT050=



000
FTUS41 KCTP 281137
TAFBFD
TAF
KBFD 281137Z 2812/2912 00000KT 1/4SM FG VV001
     FM281300 32005KT 2SM BR BKN001
     FM281400 VRB03KT 4SM BR SCT025 BKN050
     FM281500 30006KT P6SM SCT050=



000
FTUS41 KCTP 281058 AAC
TAFJST
TAF AMD
KJST 281058Z 2811/2906 00000KT 3SM BR SKC
      TEMPO 2811/2813 1/4SM FG
     FM281300 VRB02KT 4SM BR SKC
     FM281500 21004KT P6SM SCT250=



000
FTUS41 KCTP 281058 AAC
TAFJST
TAF AMD
KJST 281058Z 2811/2906 00000KT 3SM BR SKC
      TEMPO 2811/2813 1/4SM FG
     FM281300 VRB02KT 4SM BR SKC
     FM281500 21004KT P6SM SCT250=



000
FTUS41 KCTP 281058 AAC
TAFJST
TAF AMD
KJST 281058Z 2811/2906 00000KT 3SM BR SKC
      TEMPO 2811/2813 1/4SM FG
     FM281300 VRB02KT 4SM BR SKC
     FM281500 21004KT P6SM SCT250=



000
FTUS41 KCTP 281058 AAC
TAFJST
TAF AMD
KJST 281058Z 2811/2906 00000KT 3SM BR SKC
      TEMPO 2811/2813 1/4SM FG
     FM281300 VRB02KT 4SM BR SKC
     FM281500 21004KT P6SM SCT250=



000
FTUS41 KCTP 280939 AAB
TAFAOO
TAF AMD
KAOO 280939Z 2810/2906 00000KT 3SM BR SKC
      TEMPO 2810/2812 3/4SM BR SKC
     FM281500 21004KT P6SM SCT250=



000
FTUS41 KCTP 280855 AAB
TAFIPT
TAF AMD
KIPT 280855Z 2809/2906 00000KT P6SM OVC060
     FM281100 00000KT 3SM BR SCT015 BKN060
     FM281500 27004KT P6SM SCT250=



000
FTUS41 KCTP 280855 AAB
TAFJST
TAF AMD
KJST 280855Z 2809/2906 00000KT 3SM BR SKC
     FM281300 VRB02KT 4SM BR SKC
     FM281500 21004KT P6SM SCT250=



000
FTUS41 KCTP 280855 AAB
TAFBFD
TAF AMD
KBFD 280855Z 2809/2906 00000KT 1/2SM FG VV001
     FM281200 VRB02KT 4SM BR SCT003 BKN015 OVC025
     FM281400 VRB03KT P6SM SCT025 BKN050=



000
FTUS41 KCTP 280855 AAB
TAFBFD
TAF AMD
KBFD 280855Z 2809/2906 00000KT 1/2SM FG VV001
     FM281200 VRB02KT 4SM BR SCT003 BKN015 OVC025
     FM281400 VRB03KT P6SM SCT025 BKN050=



000
FTUS41 KCTP 280855 AAB
TAFIPT
TAF AMD
KIPT 280855Z 2809/2906 00000KT P6SM OVC060
     FM281100 00000KT 3SM BR SCT015 BKN060
     FM281500 27004KT P6SM SCT250=



000
FTUS41 KCTP 280855 AAA
TAFMDT
TAF AMD
KMDT 280855Z 2809/2906 00000KT P6SM FEW070
     FM281500 24004KT P6SM SCT250=



000
FTUS41 KCTP 280855 AAB
TAFJST
TAF AMD
KJST 280855Z 2809/2906 00000KT 3SM BR SKC
     FM281300 VRB02KT 4SM BR SKC
     FM281500 21004KT P6SM SCT250=



000
FTUS41 KCTP 280855 AAA
TAFMDT
TAF AMD
KMDT 280855Z 2809/2906 00000KT P6SM FEW070
     FM281500 24004KT P6SM SCT250=



000
FTUS41 KCTP 280855 AAA
TAFUNV
TAF AMD
KUNV 280855Z 2809/2906 00000KT P6SM SCT080 SCT100
     FM281500 21004KT P6SM SCT250=



000
FTUS41 KCTP 280855 AAA
TAFAOO
TAF AMD
KAOO 280855Z 2809/2906 00000KT 3SM BR SKC
     FM281500 21004KT P6SM SCT250=



000
FTUS41 KCTP 280855 AAA
TAFUNV
TAF AMD
KUNV 280855Z 2809/2906 00000KT P6SM SCT080 SCT100
     FM281500 21004KT P6SM SCT250=



000
FTUS41 KCTP 280855 AAA
TAFAOO
TAF AMD
KAOO 280855Z 2809/2906 00000KT 3SM BR SKC
     FM281500 21004KT P6SM SCT250=



000
FTUS41 KCTP 280830 AAA
TAFIPT
TAF AMD
KIPT 280830Z 2809/2906 00000KT P6SM FEW045 SCT070
     FM281000 00000KT 2SM BR BKN003
     FM281500 27004KT P6SM SCT250=



000
FTUS41 KCTP 280830 AAA
TAFJST
TAF AMD
KJST 280830Z 2809/2906 00000KT 1 1/2SM BR SKC
     FM281300 VRB02KT 4SM BR SKC
     FM281500 21004KT P6SM SCT250=



000
FTUS41 KCTP 280830 AAA
TAFIPT
TAF AMD
KIPT 280830Z 2809/2906 00000KT P6SM FEW045 SCT070
     FM281000 00000KT 2SM BR BKN003
     FM281500 27004KT P6SM SCT250=



000
FTUS41 KCTP 280830 AAA
TAFJST
TAF AMD
KJST 280830Z 2809/2906 00000KT 1 1/2SM BR SKC
     FM281300 VRB02KT 4SM BR SKC
     FM281500 21004KT P6SM SCT250=



000
FTUS41 KCTP 280830 AAA
TAFJST
TAF AMD
KJST 280830Z 2809/2906 00000KT 1 1/2SM BR SKC
     FM281300 VRB02KT 4SM BR SKC
     FM281500 21004KT P6SM SCT250=



000
FTUS41 KCTP 280830 AAA
TAFJST
TAF AMD
KJST 280830Z 2809/2906 00000KT 1 1/2SM BR SKC
     FM281300 VRB02KT 4SM BR SKC
     FM281500 21004KT P6SM SCT250=



000
FTUS41 KCTP 280545 AAA
TAFBFD
TAF AMD
KBFD 280545Z 2806/2906 VRB02KT 1SM BR OVC003
      TEMPO 2806/2809 1/2SM FG VV001
     FM281200 VRB02KT 4SM BR SCT003 BKN015 OVC025
     FM281400 VRB03KT P6SM SCT025 BKN050=



000
FTUS41 KCTP 280545 AAA
TAFBFD
TAF AMD
KBFD 280545Z 2806/2906 VRB02KT 1SM BR OVC003
      TEMPO 2806/2809 1/2SM FG VV001
     FM281200 VRB02KT 4SM BR SCT003 BKN015 OVC025
     FM281400 VRB03KT P6SM SCT025 BKN050=



000
FTUS41 KCTP 280545 AAA
TAFBFD
TAF AMD
KBFD 280545Z 2806/2906 VRB02KT 1SM BR OVC003
      TEMPO 2806/2809 1/2SM FG VV001
     FM281200 VRB02KT 4SM BR SCT003 BKN015 OVC025
     FM281400 VRB03KT P6SM SCT025 BKN050=



000
FTUS41 KCTP 280545 AAA
TAFBFD
TAF AMD
KBFD 280545Z 2806/2906 VRB02KT 1SM BR OVC003
      TEMPO 2806/2809 1/2SM FG VV001
     FM281200 VRB02KT 4SM BR SCT003 BKN015 OVC025
     FM281400 VRB03KT P6SM SCT025 BKN050=



000
FTUS41 KCTP 280539
TAFBFD
TAF
KBFD 280539Z 2806/2906 VRB02KT 1SM BR OVC003
     FM281200 VRB02KT 4SM BR SCT003 BKN015 OVC025
     FM281400 VRB03KT P6SM SCT025 BKN050=



000
FTUS41 KCTP 280539
TAFIPT
TAF
KIPT 280539Z 2806/2906 00000KT P6SM FEW045 SCT070
     FM280800 00000KT 1/2SM FG BKN003
     FM281500 27004KT P6SM SCT250=



000
FTUS41 KCTP 280539
TAFMDT
TAF
KMDT 280539Z 2806/2906 00000KT P6SM BKN070
     FM280800 VRB03KT P6SM SCT250
     FM281500 24004KT P6SM SCT250=



000
FTUS41 KCTP 280539
TAFAOO
TAF
KAOO 280539Z 2806/2906 00000KT 6SM BR BKN060
     FM280800 VRB03KT 4SM BR SKC
     FM281500 21004KT P6SM SCT250=



000
FTUS41 KCTP 280539
TAFJST
TAF
KJST 280539Z 2806/2906 20003KT P6SM SKC
     FM280700 VRB03KT 3SM BR SKC
     FM281500 21004KT P6SM SCT250=



000
FTUS41 KCTP 280539
TAFAOO
TAF
KAOO 280539Z 2806/2906 00000KT 6SM BR BKN060
     FM280800 VRB03KT 4SM BR SKC
     FM281500 21004KT P6SM SCT250=



000
FTUS41 KCTP 280539
TAFIPT
TAF
KIPT 280539Z 2806/2906 00000KT P6SM FEW045 SCT070
     FM280800 00000KT 1/2SM FG BKN003
     FM281500 27004KT P6SM SCT250=



000
FTUS41 KCTP 280539
TAFIPT
TAF
KIPT 280539Z 2806/2906 00000KT P6SM FEW045 SCT070
     FM280800 00000KT 1/2SM FG BKN003
     FM281500 27004KT P6SM SCT250=



000
FTUS41 KCTP 280539
TAFBFD
TAF
KBFD 280539Z 2806/2906 VRB02KT 1SM BR OVC003
     FM281200 VRB02KT 4SM BR SCT003 BKN015 OVC025
     FM281400 VRB03KT P6SM SCT025 BKN050=



000
FTUS41 KCTP 280539
TAFMDT
TAF
KMDT 280539Z 2806/2906 00000KT P6SM BKN070
     FM280800 VRB03KT P6SM SCT250
     FM281500 24004KT P6SM SCT250=



000
FTUS41 KCTP 280539
TAFMDT
TAF
KMDT 280539Z 2806/2906 00000KT P6SM BKN070
     FM280800 VRB03KT P6SM SCT250
     FM281500 24004KT P6SM SCT250=



000
FTUS41 KCTP 280539
TAFBFD
TAF
KBFD 280539Z 2806/2906 VRB02KT 1SM BR OVC003
     FM281200 VRB02KT 4SM BR SCT003 BKN015 OVC025
     FM281400 VRB03KT P6SM SCT025 BKN050=



000
FTUS41 KCTP 280539
TAFUNV
TAF
KUNV 280539Z 2806/2906 00000KT P6SM SCT070 SCT090 SCT110
     FM281500 21004KT P6SM SCT250=



000
FTUS41 KCTP 280539
TAFJST
TAF
KJST 280539Z 2806/2906 20003KT P6SM SKC
     FM280700 VRB03KT 3SM BR SKC
     FM281500 21004KT P6SM SCT250=



000
FTUS41 KCTP 280539
TAFUNV
TAF
KUNV 280539Z 2806/2906 00000KT P6SM SCT070 SCT090 SCT110
     FM281500 21004KT P6SM SCT250=



000
FTUS41 KCTP 280539
TAFAOO
TAF
KAOO 280539Z 2806/2906 00000KT 6SM BR BKN060
     FM280800 VRB03KT 4SM BR SKC
     FM281500 21004KT P6SM SCT250=



000
FTUS41 KCTP 280539
TAFUNV
TAF
KUNV 280539Z 2806/2906 00000KT P6SM SCT070 SCT090 SCT110
     FM281500 21004KT P6SM SCT250=



000
FTUS41 KCTP 280539
TAFBFD
TAF
KBFD 280539Z 2806/2906 VRB02KT 1SM BR OVC003
     FM281200 VRB02KT 4SM BR SCT003 BKN015 OVC025
     FM281400 VRB03KT P6SM SCT025 BKN050=



000
FTUS41 KCTP 280539
TAFMDT
TAF
KMDT 280539Z 2806/2906 00000KT P6SM BKN070
     FM280800 VRB03KT P6SM SCT250
     FM281500 24004KT P6SM SCT250=



000
FTUS41 KCTP 280539
TAFIPT
TAF
KIPT 280539Z 2806/2906 00000KT P6SM FEW045 SCT070
     FM280800 00000KT 1/2SM FG BKN003
     FM281500 27004KT P6SM SCT250=



000
FTUS41 KCTP 280539
TAFJST
TAF
KJST 280539Z 2806/2906 20003KT P6SM SKC
     FM280700 VRB03KT 3SM BR SKC
     FM281500 21004KT P6SM SCT250=



000
FTUS41 KCTP 280539
TAFAOO
TAF
KAOO 280539Z 2806/2906 00000KT 6SM BR BKN060
     FM280800 VRB03KT 4SM BR SKC
     FM281500 21004KT P6SM SCT250=



000
FTUS41 KCTP 280539
TAFJST
TAF
KJST 280539Z 2806/2906 20003KT P6SM SKC
     FM280700 VRB03KT 3SM BR SKC
     FM281500 21004KT P6SM SCT250=



000
FTUS41 KCTP 280353 AAA
TAFAOO
TAF AMD
KAOO 280353Z 2804/2824 00000KT P6SM SKC
     FM280800 VRB03KT 4SM BR SKC
     FM281500 21004KT P6SM SCT250=



000
FTUS41 KCTP 280353 AAA
TAFIPT
TAF AMD
KIPT 280353Z 2804/2824 34003KT P6SM SCT040 BKN070
     FM280600 VRB03KT 4SM BR SKC
     FM280800 00000KT 1/2SM FG BKN003
     FM281500 27004KT P6SM SCT250=



000
FTUS41 KCTP 280353 AAA
TAFUNV
TAF AMD
KUNV 280353Z 2804/2824 25004KT P6SM SCT060 BKN070
     FM280600 VRB03KT 4SM BR SKC
     FM281500 21004KT P6SM SCT250=



000
FTUS41 KCTP 280353 AAA
TAFBFD
TAF AMD
KBFD 280353Z 2804/2824 00000KT P6SM SKC
     FM280600 VRB02KT 1SM BR OVC003
     FM281400 VRB03KT P6SM BKN050=



000
FTUS41 KCTP 280353 AAA
TAFJST
TAF AMD
KJST 280353Z 2804/2824 00000KT P6SM BKN050
     FM280700 VRB03KT 3SM BR SKC
     FM281500 21004KT P6SM SCT250=



000
FTUS41 KCTP 280353 AAA
TAFMDT
TAF AMD
KMDT 280353Z 2804/2824 00000KT P6SM SCT070
     FM280800 VRB03KT P6SM SCT250
     FM281500 24004KT P6SM SCT250=



000
FTUS41 KCTP 280353 AAA
TAFJST
TAF AMD
KJST 280353Z 2804/2824 00000KT P6SM BKN050
     FM280700 VRB03KT 3SM BR SKC
     FM281500 21004KT P6SM SCT250=



000
FTUS41 KCTP 280353 AAA
TAFAOO
TAF AMD
KAOO 280353Z 2804/2824 00000KT P6SM SKC
     FM280800 VRB03KT 4SM BR SKC
     FM281500 21004KT P6SM SCT250=



000
FTUS41 KCTP 280353 AAA
TAFUNV
TAF AMD
KUNV 280353Z 2804/2824 25004KT P6SM SCT060 BKN070
     FM280600 VRB03KT 4SM BR SKC
     FM281500 21004KT P6SM SCT250=



000
FTUS41 KCTP 272341
TAFJST
TAF
KJST 272341Z 2800/2824 26003KT P6SM BKN050
     FM280300 32003KT P6SM SKC
     FM280700 VRB03KT 3SM BR SKC
     FM281500 21004KT P6SM SCT250=



000
FTUS41 KCTP 272341
TAFUNV
TAF
KUNV 272341Z 2800/2824 VRB03KT P6SM BKN060
     FM280600 VRB03KT 4SM BR SKC
     FM281500 21004KT P6SM SCT250=



000
FTUS41 KCTP 272341
TAFMDT
TAF
KMDT 272341Z 2800/2824 VRB04KT P6SM FEW045 BKN070
     FM280200 VRB03KT P6SM SCT250
     FM281500 24004KT P6SM SCT250=



000
FTUS41 KCTP 272341
TAFIPT
TAF
KIPT 272341Z 2800/2824 VRB03KT P6SM BKN070
     FM280600 VRB03KT 4SM BR SKC
     FM280800 00000KT 1/2SM FG BKN003
     FM281500 27004KT P6SM SCT250=



000
FTUS41 KCTP 272341
TAFMDT
TAF
KMDT 272341Z 2800/2824 VRB04KT P6SM FEW045 BKN070
     FM280200 VRB03KT P6SM SCT250
     FM281500 24004KT P6SM SCT250=



000
FTUS41 KCTP 272341
TAFJST
TAF
KJST 272341Z 2800/2824 26003KT P6SM BKN050
     FM280300 32003KT P6SM SKC
     FM280700 VRB03KT 3SM BR SKC
     FM281500 21004KT P6SM SCT250=



000
FTUS41 KCTP 272341
TAFAOO
TAF
KAOO 272341Z 2800/2824 VRB03KT P6SM BKN060
     FM280600 VRB03KT 4SM BR SKC
     FM281500 21004KT P6SM SCT250=



000
FTUS41 KCTP 272341
TAFBFD
TAF
KBFD 272341Z 2800/2824 30006KT P6SM SCT050
     FM280300 31003KT P6SM SCT003
     FM280600 VRB02KT 1SM BR OVC003
     FM281400 VRB03KT P6SM BKN050=



000
FTUS41 KCTP 272341
TAFBFD
TAF
KBFD 272341Z 2800/2824 30006KT P6SM SCT050
     FM280300 31003KT P6SM SCT003
     FM280600 VRB02KT 1SM BR OVC003
     FM281400 VRB03KT P6SM BKN050=



000
FTUS41 KCTP 272341
TAFIPT
TAF
KIPT 272341Z 2800/2824 VRB03KT P6SM BKN070
     FM280600 VRB03KT 4SM BR SKC
     FM280800 00000KT 1/2SM FG BKN003
     FM281500 27004KT P6SM SCT250=



000
FTUS41 KCTP 272341
TAFUNV
TAF
KUNV 272341Z 2800/2824 VRB03KT P6SM BKN060
     FM280600 VRB03KT 4SM BR SKC
     FM281500 21004KT P6SM SCT250=



000
FTUS41 KCTP 272341
TAFJST
TAF
KJST 272341Z 2800/2824 26003KT P6SM BKN050
     FM280300 32003KT P6SM SKC
     FM280700 VRB03KT 3SM BR SKC
     FM281500 21004KT P6SM SCT250=



000
FTUS41 KCTP 272341
TAFMDT
TAF
KMDT 272341Z 2800/2824 VRB04KT P6SM FEW045 BKN070
     FM280200 VRB03KT P6SM SCT250
     FM281500 24004KT P6SM SCT250=



000
FTUS41 KCTP 272341
TAFIPT
TAF
KIPT 272341Z 2800/2824 VRB03KT P6SM BKN070
     FM280600 VRB03KT 4SM BR SKC
     FM280800 00000KT 1/2SM FG BKN003
     FM281500 27004KT P6SM SCT250=



000
FTUS41 KCTP 272341
TAFBFD
TAF
KBFD 272341Z 2800/2824 30006KT P6SM SCT050
     FM280300 31003KT P6SM SCT003
     FM280600 VRB02KT 1SM BR OVC003
     FM281400 VRB03KT P6SM BKN050=



000
FTUS41 KCTP 272341
TAFJST
TAF
KJST 272341Z 2800/2824 26003KT P6SM BKN050
     FM280300 32003KT P6SM SKC
     FM280700 VRB03KT 3SM BR SKC
     FM281500 21004KT P6SM SCT250=



000
FTUS41 KCTP 272341
TAFAOO
TAF
KAOO 272341Z 2800/2824 VRB03KT P6SM BKN060
     FM280600 VRB03KT 4SM BR SKC
     FM281500 21004KT P6SM SCT250=



000
FTUS41 KCTP 272341
TAFAOO
TAF
KAOO 272341Z 2800/2824 VRB03KT P6SM BKN060
     FM280600 VRB03KT 4SM BR SKC
     FM281500 21004KT P6SM SCT250=



000
FTUS41 KCTP 272341
TAFUNV
TAF
KUNV 272341Z 2800/2824 VRB03KT P6SM BKN060
     FM280600 VRB03KT 4SM BR SKC
     FM281500 21004KT P6SM SCT250=



000
FTUS41 KCTP 272341
TAFIPT
TAF
KIPT 272341Z 2800/2824 VRB03KT P6SM BKN070
     FM280600 VRB03KT 4SM BR SKC
     FM280800 00000KT 1/2SM FG BKN003
     FM281500 27004KT P6SM SCT250=



000
FTUS41 KCTP 272341
TAFUNV
TAF
KUNV 272341Z 2800/2824 VRB03KT P6SM BKN060
     FM280600 VRB03KT 4SM BR SKC
     FM281500 21004KT P6SM SCT250=



000
FTUS41 KCTP 272341
TAFBFD
TAF
KBFD 272341Z 2800/2824 30006KT P6SM SCT050
     FM280300 31003KT P6SM SCT003
     FM280600 VRB02KT 1SM BR OVC003
     FM281400 VRB03KT P6SM BKN050=



000
FTUS41 KCTP 272341
TAFMDT
TAF
KMDT 272341Z 2800/2824 VRB04KT P6SM FEW045 BKN070
     FM280200 VRB03KT P6SM SCT250
     FM281500 24004KT P6SM SCT250=



000
FTUS41 KCTP 272341
TAFAOO
TAF
KAOO 272341Z 2800/2824 VRB03KT P6SM BKN060
     FM280600 VRB03KT 4SM BR SKC
     FM281500 21004KT P6SM SCT250=



000
FTUS41 KCTP 272140 AAA
TAFMDT
TAF AMD
KMDT 272140Z 2722/2818 34007KT P6SM SCT040 BKN070
     FM280000 32003KT P6SM SCT250
     FM281500 24004KT P6SM SCT250=



000
FTUS41 KCTP 272140 AAA
TAFUNV
TAF AMD
KUNV 272140Z 2722/2818 29006KT P6SM BKN060
     FM280000 VRB03KT P6SM BKN060
     FM280600 VRB03KT 4SM BR SKC
     FM281500 21004KT P6SM SCT250=



000
FTUS41 KCTP 272140 AAA
TAFUNV
TAF AMD
KUNV 272140Z 2722/2818 29006KT P6SM BKN060
     FM280000 VRB03KT P6SM BKN060
     FM280600 VRB03KT 4SM BR SKC
     FM281500 21004KT P6SM SCT250=



000
FTUS41 KCTP 272140 AAA
TAFJST
TAF AMD
KJST 272140Z 2722/2818 29006KT P6SM BKN050
     FM280000 32003KT P6SM BKN050
     FM280700 VRB03KT 3SM BR SKC
     FM281500 21004KT P6SM SCT250=



000
FTUS41 KCTP 272140 AAA
TAFAOO
TAF AMD
KAOO 272140Z 2722/2818 29006KT P6SM SCT035 BKN050
     FM280600 VRB03KT 4SM BR SKC
     FM281500 21004KT P6SM SCT250=



000
FTUS41 KCTP 272140 AAA
TAFBFD
TAF AMD
KBFD 272140Z 2722/2818 31010KT P6SM SCT035 OVC050
     FM280000 31003KT P6SM BKN050
     FM280600 VRB02KT 1SM BR OVC003
     FM281400 VRB03KT P6SM BKN050=



000
FTUS41 KCTP 272140 AAA
TAFIPT
TAF AMD
KIPT 272140Z 2722/2818 VRB03KT P6SM BKN060
     FM280600 VRB03KT 4SM BR SKC
     FM280800 00000KT 1/2SM FG BKN003
     FM281500 27004KT P6SM SCT250=



000
FTUS41 KCTP 271748
TAFIPT
TAF
KIPT 271748Z 2718/2818 28007KT P6SM SCT025 BKN050
     FM280000 VRB03KT P6SM BKN060
     FM280600 VRB03KT 4SM BR SKC
     FM280800 00000KT 1/2SM FG BKN003
     FM281500 27004KT P6SM SCT250=



000
FTUS41 KCTP 271748
TAFBFD
TAF
KBFD 271748Z 2718/2818 31006KT P6SM SCT025 OVC040
     FM280000 31003KT P6SM BKN050
     FM280600 VRB02KT 1SM BR OVC003
     FM281400 VRB03KT P6SM BKN050=



000
FTUS41 KCTP 271748
TAFMDT
TAF
KMDT 271748Z 2718/2818 30007KT P6SM BKN050
     FM280000 32003KT P6SM SCT250
     FM281500 24004KT P6SM SCT250=



000
FTUS41 KCTP 271748
TAFUNV
TAF
KUNV 271748Z 2718/2818 29007KT P6SM SCT027 BKN050
     FM280000 VRB03KT P6SM BKN060
     FM280600 VRB03KT 4SM BR SKC
     FM281500 21004KT P6SM SCT250=



000
FTUS41 KCTP 271748
TAFAOO
TAF
KAOO 271748Z 2718/2818 32005KT P6SM BKN050
     FM280600 VRB03KT 4SM BR SKC
     FM281500 21004KT P6SM SCT250=



000
FTUS41 KCTP 271748
TAFJST
TAF
KJST 271748Z 2718/2818 30008KT P6SM SCT025 BKN035
     FM280000 32003KT P6SM BKN050
     FM280700 VRB03KT 3SM BR SKC
     FM281500 21004KT P6SM SCT250=



000
FTUS41 KCTP 271748
TAFIPT
TAF
KIPT 271748Z 2718/2818 28007KT P6SM SCT025 BKN050
     FM280000 VRB03KT P6SM BKN060
     FM280600 VRB03KT 4SM BR SKC
     FM280800 00000KT 1/2SM FG BKN003
     FM281500 27004KT P6SM SCT250=



000
FTUS41 KCTP 271748
TAFBFD
TAF
KBFD 271748Z 2718/2818 31006KT P6SM SCT025 OVC040
     FM280000 31003KT P6SM BKN050
     FM280600 VRB02KT 1SM BR OVC003
     FM281400 VRB03KT P6SM BKN050=



000
FTUS41 KCTP 271748
TAFMDT
TAF
KMDT 271748Z 2718/2818 30007KT P6SM BKN050
     FM280000 32003KT P6SM SCT250
     FM281500 24004KT P6SM SCT250=



000
FTUS41 KCTP 271748
TAFAOO
TAF
KAOO 271748Z 2718/2818 32005KT P6SM BKN050
     FM280600 VRB03KT 4SM BR SKC
     FM281500 21004KT P6SM SCT250=



000
FTUS41 KCTP 271748
TAFUNV
TAF
KUNV 271748Z 2718/2818 29007KT P6SM SCT027 BKN050
     FM280000 VRB03KT P6SM BKN060
     FM280600 VRB03KT 4SM BR SKC
     FM281500 21004KT P6SM SCT250=



000
FTUS41 KCTP 271748
TAFJST
TAF
KJST 271748Z 2718/2818 30008KT P6SM SCT025 BKN035
     FM280000 32003KT P6SM BKN050
     FM280700 VRB03KT 3SM BR SKC
     FM281500 21004KT P6SM SCT250=



000
FTUS41 KCTP 271748
TAFIPT
TAF
KIPT 271748Z 2718/2818 28007KT P6SM SCT025 BKN050
     FM280000 VRB03KT P6SM BKN060
     FM280600 VRB03KT 4SM BR SKC
     FM280800 00000KT 1/2SM FG BKN003
     FM281500 27004KT P6SM SCT250=



000
FTUS41 KCTP 271748
TAFMDT
TAF
KMDT 271748Z 2718/2818 30007KT P6SM BKN050
     FM280000 32003KT P6SM SCT250
     FM281500 24004KT P6SM SCT250=



000
FTUS41 KCTP 271748
TAFJST
TAF
KJST 271748Z 2718/2818 30008KT P6SM SCT025 BKN035
     FM280000 32003KT P6SM BKN050
     FM280700 VRB03KT 3SM BR SKC
     FM281500 21004KT P6SM SCT250=



000
FTUS41 KCTP 271748
TAFMDT
TAF
KMDT 271748Z 2718/2818 30007KT P6SM BKN050
     FM280000 32003KT P6SM SCT250
     FM281500 24004KT P6SM SCT250=



000
FTUS41 KCTP 271748
TAFUNV
TAF
KUNV 271748Z 2718/2818 29007KT P6SM SCT027 BKN050
     FM280000 VRB03KT P6SM BKN060
     FM280600 VRB03KT 4SM BR SKC
     FM281500 21004KT P6SM SCT250=



000
FTUS41 KCTP 271748
TAFAOO
TAF
KAOO 271748Z 2718/2818 32005KT P6SM BKN050
     FM280600 VRB03KT 4SM BR SKC
     FM281500 21004KT P6SM SCT250=



000
FTUS41 KCTP 271748
TAFUNV
TAF
KUNV 271748Z 2718/2818 29007KT P6SM SCT027 BKN050
     FM280000 VRB03KT P6SM BKN060
     FM280600 VRB03KT 4SM BR SKC
     FM281500 21004KT P6SM SCT250=



000
FTUS41 KCTP 271748
TAFJST
TAF
KJST 271748Z 2718/2818 30008KT P6SM SCT025 BKN035
     FM280000 32003KT P6SM BKN050
     FM280700 VRB03KT 3SM BR SKC
     FM281500 21004KT P6SM SCT250=



000
FTUS41 KCTP 271748
TAFAOO
TAF
KAOO 271748Z 2718/2818 32005KT P6SM BKN050
     FM280600 VRB03KT 4SM BR SKC
     FM281500 21004KT P6SM SCT250=



000
FTUS41 KCTP 271748
TAFIPT
TAF
KIPT 271748Z 2718/2818 28007KT P6SM SCT025 BKN050
     FM280000 VRB03KT P6SM BKN060
     FM280600 VRB03KT 4SM BR SKC
     FM280800 00000KT 1/2SM FG BKN003
     FM281500 27004KT P6SM SCT250=



000
FTUS41 KCTP 271748
TAFBFD
TAF
KBFD 271748Z 2718/2818 31006KT P6SM SCT025 OVC040
     FM280000 31003KT P6SM BKN050
     FM280600 VRB02KT 1SM BR OVC003
     FM281400 VRB03KT P6SM BKN050=



000
FTUS41 KCTP 271748
TAFBFD
TAF
KBFD 271748Z 2718/2818 31006KT P6SM SCT025 OVC040
     FM280000 31003KT P6SM BKN050
     FM280600 VRB02KT 1SM BR OVC003
     FM281400 VRB03KT P6SM BKN050=



000
FTUS41 KCTP 271520 AAC
TAFMDT
TAF AMD
KMDT 271520Z 2715/2812 31007KT P6SM BKN050=



000
FTUS41 KCTP 271520 AAD
TAFIPT
TAF AMD
KIPT 271520Z 2715/2812 28004KT P6SM SCT025 BKN050=



000
FTUS41 KCTP 271520 AAE
TAFJST
TAF AMD
KJST 271520Z 2715/2812 30008KT P6SM SCT008 BKN035
     FM271700 31006KT P6SM BKN050=



000
FTUS41 KCTP 271520 AAD
TAFUNV
TAF AMD
KUNV 271520Z 2715/2812 27007KT P6SM SCT027 BKN050
     FM280000 VRB03KT P6SM BKN060=



000
FTUS41 KCTP 271520 AAD
TAFUNV
TAF AMD
KUNV 271520Z 2715/2812 27007KT P6SM SCT027 BKN050
     FM280000 VRB03KT P6SM BKN060=



000
FTUS41 KCTP 271520 AAE
TAFJST
TAF AMD
KJST 271520Z 2715/2812 30008KT P6SM SCT008 BKN035
     FM271700 31006KT P6SM BKN050=



000
FTUS41 KCTP 271520 AAC
TAFMDT
TAF AMD
KMDT 271520Z 2715/2812 31007KT P6SM BKN050=



000
FTUS41 KCTP 271520 AAC
TAFAOO
TAF AMD
KAOO 271520Z 2715/2812 32005KT P6SM BKN050=



000
FTUS41 KCTP 271520 AAG
TAFBFD
TAF AMD
KBFD 271520Z 2715/2812 27005KT P6SM BKN015 OVC030
     FM271700 31006KT P6SM BKN025
     FM271800 31008KT P6SM BKN050=



000
FTUS41 KCTP 271520 AAC
TAFAOO
TAF AMD
KAOO 271520Z 2715/2812 32005KT P6SM BKN050=



000
FTUS41 KCTP 271520 AAD
TAFIPT
TAF AMD
KIPT 271520Z 2715/2812 28004KT P6SM SCT025 BKN050=



000
FTUS41 KCTP 271520 AAG
TAFBFD
TAF AMD
KBFD 271520Z 2715/2812 27005KT P6SM BKN015 OVC030
     FM271700 31006KT P6SM BKN025
     FM271800 31008KT P6SM BKN050=



000
FTUS41 KCTP 271403 AAC
TAFIPT
TAF AMD
KIPT 271403Z 2714/2812 VRB03KT P6SM BKN022
     FM271600 28004KT P6SM SCT025 BKN050=



000
FTUS41 KCTP 271403 AAC
TAFIPT
TAF AMD
KIPT 271403Z 2714/2812 VRB03KT P6SM BKN022
     FM271600 28004KT P6SM SCT025 BKN050=



000
FTUS41 KCTP 271403 AAC
TAFIPT
TAF AMD
KIPT 271403Z 2714/2812 VRB03KT P6SM BKN022
     FM271600 28004KT P6SM SCT025 BKN050=



000
FTUS41 KCTP 271403 AAC
TAFIPT
TAF AMD
KIPT 271403Z 2714/2812 VRB03KT P6SM BKN022
     FM271600 28004KT P6SM SCT025 BKN050=



000
FTUS41 KCTP 271319 AAF
TAFBFD
TAF AMD
KBFD 271319Z 2713/2812 27005KT P6SM BKN015 OVC030
     FM271500 31006KT P6SM BKN025
     FM271800 31008KT P6SM BKN050=



000
FTUS41 KCTP 271319 AAF
TAFBFD
TAF AMD
KBFD 271319Z 2713/2812 27005KT P6SM BKN015 OVC030
     FM271500 31006KT P6SM BKN025
     FM271800 31008KT P6SM BKN050=



000
FTUS41 KCTP 271318 AAC
TAFUNV
TAF AMD
KUNV 271318Z 2713/2812 27007KT P6SM SCT027 BKN050
     FM280000 VRB03KT P6SM BKN060=



000
FTUS41 KCTP 271316 AAD
TAFJST
TAF AMD
KJST 271316Z 2713/2812 30008KT P6SM BKN008 OVC015
     FM271400 30008KT P6SM SCT008 BKN015
     FM271700 31006KT P6SM BKN050=



000
FTUS41 KCTP 271316 AAD
TAFJST
TAF AMD
KJST 271316Z 2713/2812 30008KT P6SM BKN008 OVC015
     FM271400 30008KT P6SM SCT008 BKN015
     FM271700 31006KT P6SM BKN050=



000
FTUS41 KCTP 271156 RRB
TAFBFD
TAF
KBFD 271156Z 2712/2806 27005KT P6SM FEW006 BKN010 OVC030
      TEMPO 2712/2713 BKN006
     FM271300 31006KT P6SM FEW006 BKN025
     FM271600 31008KT P6SM BKN050=



000
FTUS41 KCTP 271156 RRB
TAFBFD
TAF
KBFD 271156Z 2712/2806 27005KT P6SM FEW006 BKN010 OVC030
      TEMPO 2712/2713 BKN006
     FM271300 31006KT P6SM FEW006 BKN025
     FM271600 31008KT P6SM BKN050=



000
FTUS41 KCTP 271156 RRB
TAFBFD
TAF
KBFD 271156Z 2712/2806 27005KT P6SM FEW006 BKN010 OVC030
      TEMPO 2712/2713 BKN006
     FM271300 31006KT P6SM FEW006 BKN025
     FM271600 31008KT P6SM BKN050=



000
FTUS41 KCTP 271141 AAB
TAFAOO
TAF AMD
KAOO 271141Z 2712/2806 00000KT P6SM SCT021
     FM271500 32005KT P6SM BKN050=



000
FTUS41 KCTP 271141 AAE
TAFBFD
TAF AMD
KBFD 271141Z 2712/2806 00000KT P6SM FEW006 BKN010 OVC030
     FM271300 31006KT P6SM FEW006 BKN025
     FM271600 31008KT P6SM BKN050=



000
FTUS41 KCTP 271141 AAB
TAFMDT
TAF AMD
KMDT 271141Z 2712/2806 35003KT P6SM SKC
     FM271500 31007KT P6SM BKN050=



000
FTUS41 KCTP 271141 AAB
TAFAOO
TAF AMD
KAOO 271141Z 2712/2806 00000KT P6SM SCT021
     FM271500 32005KT P6SM BKN050=



000
FTUS41 KCTP 271141 AAB
TAFUNV
TAF AMD
KUNV 271141Z 2712/2806 00000KT P6SM BKN027 BKN080
     FM271500 32005KT P6SM BKN030=



000
FTUS41 KCTP 271141 AAC
TAFJST
TAF AMD
KJST 271141Z 2712/2806 30005KT P6SM FEW008 OVC015
     FM271500 31006KT P6SM BKN050=



000
FTUS41 KCTP 271141 AAB
TAFIPT
TAF AMD
KIPT 271141Z 2712/2806 00000KT P6SM BKN030 OVC045
     FM271300 28004KT P6SM BKN050=



000
FTUS41 KCTP 271141 AAE
TAFBFD
TAF AMD
KBFD 271141Z 2712/2806 00000KT P6SM FEW006 BKN010 OVC030
     FM271300 31006KT P6SM FEW006 BKN025
     FM271600 31008KT P6SM BKN050=



000
FTUS41 KCTP 271141 AAB
TAFUNV
TAF AMD
KUNV 271141Z 2712/2806 00000KT P6SM BKN027 BKN080
     FM271500 32005KT P6SM BKN030=



000
FTUS41 KCTP 271141 AAC
TAFJST
TAF AMD
KJST 271141Z 2712/2806 30005KT P6SM FEW008 OVC015
     FM271500 31006KT P6SM BKN050=



000
FTUS41 KCTP 271141 AAE
TAFBFD
TAF AMD
KBFD 271141Z 2712/2806 00000KT P6SM FEW006 BKN010 OVC030
     FM271300 31006KT P6SM FEW006 BKN025
     FM271600 31008KT P6SM BKN050=



000
FTUS41 KCTP 271141 AAB
TAFIPT
TAF AMD
KIPT 271141Z 2712/2806 00000KT P6SM BKN030 OVC045
     FM271300 28004KT P6SM BKN050=



000
FTUS41 KCTP 271141 AAB
TAFAOO
TAF AMD
KAOO 271141Z 2712/2806 00000KT P6SM SCT021
     FM271500 32005KT P6SM BKN050=



000
FTUS41 KCTP 271141 AAB
TAFMDT
TAF AMD
KMDT 271141Z 2712/2806 35003KT P6SM SKC
     FM271500 31007KT P6SM BKN050=



000
FTUS41 KCTP 271141 AAB
TAFMDT
TAF AMD
KMDT 271141Z 2712/2806 35003KT P6SM SKC
     FM271500 31007KT P6SM BKN050=



000
FTUS41 KCTP 271141 AAB
TAFAOO
TAF AMD
KAOO 271141Z 2712/2806 00000KT P6SM SCT021
     FM271500 32005KT P6SM BKN050=



000
FTUS41 KCTP 271141 AAB
TAFMDT
TAF AMD
KMDT 271141Z 2712/2806 35003KT P6SM SKC
     FM271500 31007KT P6SM BKN050=



000
FTUS41 KCTP 271141 AAE
TAFBFD
TAF AMD
KBFD 271141Z 2712/2806 00000KT P6SM FEW006 BKN010 OVC030
     FM271300 31006KT P6SM FEW006 BKN025
     FM271600 31008KT P6SM BKN050=



000
FTUS41 KCTP 271141 AAC
TAFJST
TAF AMD
KJST 271141Z 2712/2806 30005KT P6SM FEW008 OVC015
     FM271500 31006KT P6SM BKN050=



000
FTUS41 KCTP 271141 AAB
TAFIPT
TAF AMD
KIPT 271141Z 2712/2806 00000KT P6SM BKN030 OVC045
     FM271300 28004KT P6SM BKN050=



000
FTUS41 KCTP 271141 AAB
TAFUNV
TAF AMD
KUNV 271141Z 2712/2806 00000KT P6SM BKN027 BKN080
     FM271500 32005KT P6SM BKN030=



000
FTUS41 KCTP 271141 AAB
TAFIPT
TAF AMD
KIPT 271141Z 2712/2806 00000KT P6SM BKN030 OVC045
     FM271300 28004KT P6SM BKN050=



000
FTUS41 KCTP 271141 AAC
TAFJST
TAF AMD
KJST 271141Z 2712/2806 30005KT P6SM FEW008 OVC015
     FM271500 31006KT P6SM BKN050=



000
FTUS41 KCTP 271141 AAB
TAFUNV
TAF AMD
KUNV 271141Z 2712/2806 00000KT P6SM BKN027 BKN080
     FM271500 32005KT P6SM BKN030=



000
FTUS41 KCTP 270918 AAB
TAFJST
TAF AMD
KJST 270918Z 2709/2806 25006KT P6SM FEW013 BKN060
     FM271000 28004KT 4SM BR OVC015
     FM271500 31006KT P6SM BKN050=



000
FTUS41 KCTP 270918 AAD
TAFBFD
TAF AMD
KBFD 270918Z 2709/2806 25003KT P6SM OVC006
     FM271000 00000KT 2SM BR OVC003
     FM271300 31006KT P6SM BKN025
     FM271600 31008KT P6SM BKN050=



000
FTUS41 KCTP 270918 AAA
TAFIPT
TAF AMD
KIPT 270918Z 2709/2806 27007KT P6SM FEW080
     FM271100 VRB02KT 5SM BR SCT025
     FM271300 28004KT P6SM BKN050=



000
FTUS41 KCTP 270918 AAD
TAFBFD
TAF AMD
KBFD 270918Z 2709/2806 25003KT P6SM OVC006
     FM271000 00000KT 2SM BR OVC003
     FM271300 31006KT P6SM BKN025
     FM271600 31008KT P6SM BKN050=



000
FTUS41 KCTP 270918 AAB
TAFJST
TAF AMD
KJST 270918Z 2709/2806 25006KT P6SM FEW013 BKN060
     FM271000 28004KT 4SM BR OVC015
     FM271500 31006KT P6SM BKN050=



000
FTUS41 KCTP 270918 AAA
TAFAOO
TAF AMD
KAOO 270918Z 2709/2806 00000KT P6SM FEW070
     FM271500 32005KT P6SM BKN050=



000
FTUS41 KCTP 270918 AAA
TAFMDT
TAF AMD
KMDT 270918Z 2709/2806 00000KT P6SM FEW080
     FM271500 31007KT P6SM BKN050=



000
FTUS41 KCTP 270918 AAA
TAFIPT
TAF AMD
KIPT 270918Z 2709/2806 27007KT P6SM FEW080
     FM271100 VRB02KT 5SM BR SCT025
     FM271300 28004KT P6SM BKN050=



000
FTUS41 KCTP 270918 AAA
TAFAOO
TAF AMD
KAOO 270918Z 2709/2806 00000KT P6SM FEW070
     FM271500 32005KT P6SM BKN050=



000
FTUS41 KCTP 270918 AAA
TAFUNV
TAF AMD
KUNV 270918Z 2709/2806 22003KT P6SM OVC080
     FM271500 32005KT P6SM BKN050=



000
FTUS41 KCTP 270918 AAA
TAFUNV
TAF AMD
KUNV 270918Z 2709/2806 22003KT P6SM OVC080
     FM271500 32005KT P6SM BKN050=



000
FTUS41 KCTP 270918 AAA
TAFMDT
TAF AMD
KMDT 270918Z 2709/2806 00000KT P6SM FEW080
     FM271500 31007KT P6SM BKN050=



000
FTUS41 KCTP 270749 AAA
TAFJST
TAF AMD
KJST 270749Z 2708/2806 24003KT P6SM BKN013 OVC060
     FM271000 28004KT 4SM BR OVC015
     FM271500 31006KT P6SM BKN050=



000
FTUS41 KCTP 270749 AAA
TAFJST
TAF AMD
KJST 270749Z 2708/2806 24003KT P6SM BKN013 OVC060
     FM271000 28004KT 4SM BR OVC015
     FM271500 31006KT P6SM BKN050=



000
FTUS41 KCTP 270749 AAA
TAFJST
TAF AMD
KJST 270749Z 2708/2806 24003KT P6SM BKN013 OVC060
     FM271000 28004KT 4SM BR OVC015
     FM271500 31006KT P6SM BKN050=



000
FTUS41 KCTP 270749 AAA
TAFJST
TAF AMD
KJST 270749Z 2708/2806 24003KT P6SM BKN013 OVC060
     FM271000 28004KT 4SM BR OVC015
     FM271500 31006KT P6SM BKN050=



000
FTUS41 KCTP 270737 AAC
TAFBFD
TAF AMD
KBFD 270737Z 2708/2806 27003KT P6SM BKN004 OVC035
     FM271000 00000KT 2SM BR OVC003
     FM271300 31006KT P6SM BKN025
     FM271600 31008KT P6SM BKN050=



000
FTUS41 KCTP 270737 AAC
TAFBFD
TAF AMD
KBFD 270737Z 2708/2806 27003KT P6SM BKN004 OVC035
     FM271000 00000KT 2SM BR OVC003
     FM271300 31006KT P6SM BKN025
     FM271600 31008KT P6SM BKN050=



000
FTUS41 KCTP 270736 AAA
TAFBFD
TAF AMD
KBFD 270736Z 2708/2806 00000KT P6SM OVC060
     FM270900 VRB03KT 4SM BR SCT010 OVC015
     FM271000 00000KT 2SM BR OVC003
     FM271300 31006KT P6SM BKN025
     FM271600 31008KT P6SM BKN050=



000
FTUS41 KCTP 270736 AAA
TAFBFD
TAF AMD
KBFD 270736Z 2708/2806 00000KT P6SM OVC060
     FM270900 VRB03KT 4SM BR SCT010 OVC015
     FM271000 00000KT 2SM BR OVC003
     FM271300 31006KT P6SM BKN025
     FM271600 31008KT P6SM BKN050=



000
FTUS41 KCTP 270736 AAB
TAFBFD
TAF AMD
KBFD 270736Z 2708/2806 27003KT P6SM BKN004 OVC035
     FM271000 00000KT 2SM BR OVC003
     FM271300 31006KT P6SM BKN025
     FM271600 31008KT P6SM BKN050=



000
FTUS41 KCTP 270736 AAB
TAFBFD
TAF AMD
KBFD 270736Z 2708/2806 27003KT P6SM BKN004 OVC035
     FM271000 00000KT 2SM BR OVC003
     FM271300 31006KT P6SM BKN025
     FM271600 31008KT P6SM BKN050=



000
FTUS41 KCTP 270542
TAFBFD
TAF
KBFD 270542Z 2706/2806 00000KT P6SM OVC060
     FM270700 VRB03KT 4SM BR SCT010 OVC015
     FM270900 00000KT 2SM BR OVC003
     FM271300 31006KT P6SM BKN025
     FM271600 31008KT P6SM BKN050=



000
FTUS41 KCTP 270542
TAFAOO
TAF
KAOO 270542Z 2706/2806 00000KT P6SM SCT070
     FM270900 00000KT 5SM BR BKN050
     FM271500 32005KT P6SM BKN050=



000
FTUS41 KCTP 270542
TAFIPT
TAF
KIPT 270542Z 2706/2806 27007KT P6SM SCT070 OVC090
     FM270800 VRB03KT P6SM BKN090
     FM271100 VRB02KT 5SM BR SCT025
     FM271300 28004KT P6SM BKN050=



000
FTUS41 KCTP 270542
TAFUNV
TAF
KUNV 270542Z 2706/2806 VRB03KT P6SM SCT025 BKN045 OVC070
     FM270900 00000KT 5SM BR BKN025
     FM271500 32005KT P6SM BKN050=



000
FTUS41 KCTP 270542
TAFJST
TAF
KJST 270542Z 2706/2806 30008KT P6SM FEW015 OVC050
     FM270700 29005KT P6SM SCT010 BKN025
     FM270800 28004KT 4SM BR OVC015
     FM271500 31006KT P6SM BKN050=



000
FTUS41 KCTP 270542
TAFMDT
TAF
KMDT 270542Z 2706/2806 31007KT P6SM BKN090
     FM271500 31007KT P6SM BKN050=



000
FTUS41 KCTP 270542 RRA
TAFBFD
TAF
KBFD 270542Z 2706/2806 28004KT P6SM SCT019 BKN024 OVC060
     FM270700 VRB03KT 4SM BR SCT010 OVC015
     FM270900 00000KT 2SM BR OVC003
     FM271300 31006KT P6SM BKN025
     FM271600 31008KT P6SM BKN050=



000
FTUS41 KCTP 270542 RRA
TAFBFD
TAF
KBFD 270542Z 2706/2806 28004KT P6SM SCT019 BKN024 OVC060
     FM270700 VRB03KT 4SM BR SCT010 OVC015
     FM270900 00000KT 2SM BR OVC003
     FM271300 31006KT P6SM BKN025
     FM271600 31008KT P6SM BKN050=



000
FTUS41 KCTP 270542
TAFBFD
TAF
KBFD 270542Z 2706/2806 00000KT P6SM OVC060
     FM270700 VRB03KT 4SM BR SCT010 OVC015
     FM270900 00000KT 2SM BR OVC003
     FM271300 31006KT P6SM BKN025
     FM271600 31008KT P6SM BKN050=



000
FTUS41 KCTP 270542
TAFUNV
TAF
KUNV 270542Z 2706/2806 VRB03KT P6SM SCT025 BKN045 OVC070
     FM270900 00000KT 5SM BR BKN025
     FM271500 32005KT P6SM BKN050=



000
FTUS41 KCTP 270542
TAFBFD
TAF
KBFD 270542Z 2706/2806 00000KT P6SM OVC060
     FM270700 VRB03KT 4SM BR SCT010 OVC015
     FM270900 00000KT 2SM BR OVC003
     FM271300 31006KT P6SM BKN025
     FM271600 31008KT P6SM BKN050=



000
FTUS41 KCTP 270542
TAFIPT
TAF
KIPT 270542Z 2706/2806 27007KT P6SM SCT070 OVC090
     FM270800 VRB03KT P6SM BKN090
     FM271100 VRB02KT 5SM BR SCT025
     FM271300 28004KT P6SM BKN050=



000
FTUS41 KCTP 270542
TAFJST
TAF
KJST 270542Z 2706/2806 30008KT P6SM FEW015 OVC050
     FM270700 29005KT P6SM SCT010 BKN025
     FM270800 28004KT 4SM BR OVC015
     FM271500 31006KT P6SM BKN050=



000
FTUS41 KCTP 270542
TAFAOO
TAF
KAOO 270542Z 2706/2806 00000KT P6SM SCT070
     FM270900 00000KT 5SM BR BKN050
     FM271500 32005KT P6SM BKN050=



000
FTUS41 KCTP 270542
TAFAOO
TAF
KAOO 270542Z 2706/2806 00000KT P6SM SCT070
     FM270900 00000KT 5SM BR BKN050
     FM271500 32005KT P6SM BKN050=



000
FTUS41 KCTP 270542
TAFIPT
TAF
KIPT 270542Z 2706/2806 27007KT P6SM SCT070 OVC090
     FM270800 VRB03KT P6SM BKN090
     FM271100 VRB02KT 5SM BR SCT025
     FM271300 28004KT P6SM BKN050=



000
FTUS41 KCTP 270542
TAFJST
TAF
KJST 270542Z 2706/2806 30008KT P6SM FEW015 OVC050
     FM270700 29005KT P6SM SCT010 BKN025
     FM270800 28004KT 4SM BR OVC015
     FM271500 31006KT P6SM BKN050=



000
FTUS41 KCTP 270542
TAFMDT
TAF
KMDT 270542Z 2706/2806 31007KT P6SM BKN090
     FM271500 31007KT P6SM BKN050=



000
FTUS41 KCTP 270542
TAFUNV
TAF
KUNV 270542Z 2706/2806 VRB03KT P6SM SCT025 BKN045 OVC070
     FM270900 00000KT 5SM BR BKN025
     FM271500 32005KT P6SM BKN050=



000
FTUS41 KCTP 270542
TAFJST
TAF
KJST 270542Z 2706/2806 30008KT P6SM FEW015 OVC050
     FM270700 29005KT P6SM SCT010 BKN025
     FM270800 28004KT 4SM BR OVC015
     FM271500 31006KT P6SM BKN050=



000
FTUS41 KCTP 270542
TAFMDT
TAF
KMDT 270542Z 2706/2806 31007KT P6SM BKN090
     FM271500 31007KT P6SM BKN050=



000
FTUS41 KCTP 270542
TAFMDT
TAF
KMDT 270542Z 2706/2806 31007KT P6SM BKN090
     FM271500 31007KT P6SM BKN050=



000
FTUS41 KCTP 270542
TAFIPT
TAF
KIPT 270542Z 2706/2806 27007KT P6SM SCT070 OVC090
     FM270800 VRB03KT P6SM BKN090
     FM271100 VRB02KT 5SM BR SCT025
     FM271300 28004KT P6SM BKN050=



000
FTUS41 KCTP 270542
TAFUNV
TAF
KUNV 270542Z 2706/2806 VRB03KT P6SM SCT025 BKN045 OVC070
     FM270900 00000KT 5SM BR BKN025
     FM271500 32005KT P6SM BKN050=



000
FTUS41 KCTP 270542
TAFBFD
TAF
KBFD 270542Z 2706/2806 00000KT P6SM OVC060
     FM270700 VRB03KT 4SM BR SCT010 OVC015
     FM270900 00000KT 2SM BR OVC003
     FM271300 31006KT P6SM BKN025
     FM271600 31008KT P6SM BKN050=



000
FTUS41 KCTP 270542
TAFAOO
TAF
KAOO 270542Z 2706/2806 00000KT P6SM SCT070
     FM270900 00000KT 5SM BR BKN050
     FM271500 32005KT P6SM BKN050=



000
FTUS41 KCTP 270542 RRA
TAFBFD
TAF
KBFD 270542Z 2706/2806 28004KT P6SM SCT019 BKN024 OVC060
     FM270700 VRB03KT 4SM BR SCT010 OVC015
     FM270900 00000KT 2SM BR OVC003
     FM271300 31006KT P6SM BKN025
     FM271600 31008KT P6SM BKN050=



000
FTUS41 KCTP 270442 AAB
TAFBFD
TAF AMD
KBFD 270442Z 2705/2724 28003KT P6SM FEW011 BKN019 OVC060
     FM270600 VRB03KT 4SM BR SCT010 OVC015
     FM270900 00000KT 2SM BR OVC003
     FM271300 31006KT P6SM BKN025
     FM271600 31008KT P6SM BKN050=



000
FTUS41 KCTP 270442 AAB
TAFBFD
TAF AMD
KBFD 270442Z 2705/2724 28003KT P6SM FEW011 BKN019 OVC060
     FM270600 VRB03KT 4SM BR SCT010 OVC015
     FM270900 00000KT 2SM BR OVC003
     FM271300 31006KT P6SM BKN025
     FM271600 31008KT P6SM BKN050=



000
FTUS41 KCTP 270349 AAA
TAFJST
TAF AMD
KJST 270349Z 2704/2724 30008KT P6SM FEW015 OVC050
     FM270600 29005KT P6SM SCT010 BKN025
     FM270800 28004KT 4SM BR OVC015
     FM271500 31006KT P6SM BKN050=



000
FTUS41 KCTP 270349 AAA
TAFAOO
TAF AMD
KAOO 270349Z 2704/2724 00000KT P6SM SCT070
     FM270900 00000KT 5SM BR BKN050
     FM271500 32005KT P6SM BKN050=



000
FTUS41 KCTP 270349 AAA
TAFBFD
TAF AMD
KBFD 270349Z 2704/2724 00000KT P6SM OVC060
     FM270600 VRB03KT 4SM BR SCT010 OVC015
     FM270900 00000KT 2SM BR OVC003
     FM271300 31006KT P6SM BKN025
     FM271600 31008KT P6SM BKN050=



000
FTUS41 KCTP 270349 AAA
TAFIPT
TAF AMD
KIPT 270349Z 2704/2724 27007KT P6SM SCT070 OVC090
     FM270800 VRB03KT P6SM BKN090
     FM271100 VRB02KT 5SM BR SCT025
     FM271300 28004KT P6SM BKN050=



000
FTUS41 KCTP 270349 AAA
TAFAOO
TAF AMD
KAOO 270349Z 2704/2724 00000KT P6SM SCT070
     FM270900 00000KT 5SM BR BKN050
     FM271500 32005KT P6SM BKN050=



000
FTUS41 KCTP 270349 AAA
TAFMDT
TAF AMD
KMDT 270349Z 2704/2724 31007KT P6SM BKN090
     FM271500 31007KT P6SM BKN050=



000
FTUS41 KCTP 270349 AAA
TAFJST
TAF AMD
KJST 270349Z 2704/2724 30008KT P6SM FEW015 OVC050
     FM270600 29005KT P6SM SCT010 BKN025
     FM270800 28004KT 4SM BR OVC015
     FM271500 31006KT P6SM BKN050=



000
FTUS41 KCTP 270349 AAA
TAFUNV
TAF AMD
KUNV 270349Z 2704/2724 VRB03KT P6SM SCT025 BKN045 OVC070
     FM270900 00000KT 5SM BR BKN025
     FM271500 32005KT P6SM BKN050=



000
FTUS41 KCTP 270349 AAA
TAFJST
TAF AMD
KJST 270349Z 2704/2724 30008KT P6SM FEW015 OVC050
     FM270600 29005KT P6SM SCT010 BKN025
     FM270800 28004KT 4SM BR OVC015
     FM271500 31006KT P6SM BKN050=



000
FTUS41 KCTP 270349 AAA
TAFAOO
TAF AMD
KAOO 270349Z 2704/2724 00000KT P6SM SCT070
     FM270900 00000KT 5SM BR BKN050
     FM271500 32005KT P6SM BKN050=



000
FTUS41 KCTP 270349 AAA
TAFMDT
TAF AMD
KMDT 270349Z 2704/2724 31007KT P6SM BKN090
     FM271500 31007KT P6SM BKN050=



000
FTUS41 KCTP 270349 AAA
TAFBFD
TAF AMD
KBFD 270349Z 2704/2724 00000KT P6SM OVC060
     FM270600 VRB03KT 4SM BR SCT010 OVC015
     FM270900 00000KT 2SM BR OVC003
     FM271300 31006KT P6SM BKN025
     FM271600 31008KT P6SM BKN050=



000
FTUS41 KCTP 270349 AAA
TAFUNV
TAF AMD
KUNV 270349Z 2704/2724 VRB03KT P6SM SCT025 BKN045 OVC070
     FM270900 00000KT 5SM BR BKN025
     FM271500 32005KT P6SM BKN050=



000
FTUS41 KCTP 270349 AAA
TAFIPT
TAF AMD
KIPT 270349Z 2704/2724 27007KT P6SM SCT070 OVC090
     FM270800 VRB03KT P6SM BKN090
     FM271100 VRB02KT 5SM BR SCT025
     FM271300 28004KT P6SM BKN050=



    US Dept of Commerce
    National Oceanic and Atmospheric Administration
    National Weather Service
    1325 East West Highway
    Silver Spring, MD 20910
    Page Author: NWS Internet Services Team
Disclaimer
Information Quality
Credits
Glossary
Privacy Policy
Freedom of Information Act (FOIA)
About Us
Career Opportunities